M I D A S
Marine Information and Data Acquisition System
Tripno 1112 of the Zeeleeuw from 2006-06-08 04:42:34 to 2006-06-08 16:08:28
Back to CruiseResearch ActivitiesStationsMapUnderway DataData graphs

EquipmentUnitsComment
TimeDGPSUTC
LatitudeDGPSDM.mWGS84
LongitudeDGPSDM.mWGS84
TemperatureSBE03/SBE38deg celciusITS90
ConductivitySBE21S/mITS90
SalinitySBE21 Practical Salinity Units
ChlorophylAChelsea fluorimeterg/lCalibrated in Aceton
Missing or incorrect values are displayed as -999
Sea surface data collected by the RV Zeeleeuw from 2006-06-08 04:41:17 to 2006-06-08 16:13:21
                                                                                    Next 1000 lines
Time Latitude Longitude Temperature Conductivity Salinity ChlorophylA
2006-06-08 04:41:27 51°13.602 2°56.094 21.2834 0.007368 0.041487 40.681315
2006-06-08 04:41:31 51°13.603 2°56.092 21.3499 0.007368 0.041487 40.681315
2006-06-08 04:41:36 51°13.603 2°56.088 21.3555 0.007368 0.041487 40.647606
2006-06-08 04:41:43 51°13.605 2°56.081 21.3459 0.007368 0.041487 40.647606
2006-06-08 04:41:48 51°13.606 2°56.076 21.3594 0.007368 0.041488 40.613896
2006-06-08 04:41:52 51°13.608 2°56.072 21.3539 0.007368 0.041488 40.681315
2006-06-08 04:41:58 51°13.61 2°56.064 21.3761 0.007368 0.041488 40.647606
2006-06-08 04:42:03 51°13.612 2°56.058 21.3611 0.007368 0.041488 40.647606
2006-06-08 04:42:08 51°13.614 2°56.051 21.3752 0.007368 0.041488 40.647606
2006-06-08 04:42:12 51°13.616 2°56.045 21.3425 0.007368 0.041488 40.647606
2006-06-08 04:42:18 51°13.618 2°56.035 21.3681 0.007368 0.041489 40.613896
2006-06-08 04:42:23 51°13.62 2°56.027 21.3737 0.007368 0.041489 40.613896
2006-06-08 04:42:28 51°13.623 2°56.018 21.3782 0.007368 0.041489 40.613896
2006-06-08 04:42:32 51°13.624 2°56.011 21.3704 0.007368 0.041489 40.580187
2006-06-08 04:42:38 51°13.627 2°56 21.4081 0.007368 0.041489 40.580187
2006-06-08 04:42:43 51°13.629 2°55.991 21.3942 0.007368 0.041489 40.580187
2006-06-08 04:42:48 51°13.631 2°55.982 21.3979 0.007368 0.041489 40.580187
2006-06-08 04:42:52 51°13.632 2°55.975 21.4075 0.007368 0.04149 40.580187
2006-06-08 04:42:58 51°13.635 2°55.964 21.407 0.007368 0.04149 40.580187
2006-06-08 04:43:03 51°13.637 2°55.956 21.3897 0.007368 0.04149 40.546477
2006-06-08 04:43:08 51°13.639 2°55.948 21.3863 0.007368 0.04149 40.546477
2006-06-08 04:43:12 51°13.641 2°55.941 21.3901 0.007368 0.04149 40.546477
2006-06-08 04:43:18 51°13.643 2°55.932 21.3818 0.007368 0.04149 40.580187
2006-06-08 04:43:23 51°13.646 2°55.924 21.3813 0.007368 0.041491 40.546477
2006-06-08 04:43:28 51°13.648 2°55.916 21.3896 0.007368 0.041491 40.512768
2006-06-08 04:43:33 51°13.651 2°55.909 21.4 0.007368 0.041491 40.512768
2006-06-08 04:43:38 51°13.654 2°55.901 21.4026 0.007368 0.041491 40.512768
2006-06-08 04:43:43 51°13.656 2°55.894 21.4026 0.007368 0.041491 40.546477
2006-06-08 04:43:48 51°13.659 2°55.887 21.4037 0.007368 0.041492 40.512768
2006-06-08 04:43:53 51°13.662 2°55.88 21.4041 0.007368 0.041492 40.512768
2006-06-08 04:43:58 51°13.665 2°55.873 21.4035 0.007368 0.041492 40.479059
2006-06-08 04:44:02 51°13.668 2°55.867 21.4032 0.007368 0.041492 40.479059
2006-06-08 04:44:08 51°13.671 2°55.859 21.403 0.007368 0.041493 40.479059
2006-06-08 04:44:13 51°13.674 2°55.851 21.4024 0.007368 0.041493 40.479059
2006-06-08 04:44:18 51°13.677 2°55.844 21.3996 0.007368 0.041493 40.479059
2006-06-08 04:44:23 51°13.681 2°55.837 21.389 0.007368 0.041493 40.445349
2006-06-08 04:44:28 51°13.684 2°55.83 21.3766 0.007368 0.041493 40.445349
2006-06-08 04:44:32 51°13.687 2°55.824 21.4044 0.007368 0.041493 40.41164
2006-06-08 04:44:38 51°13.691 2°55.815 21.4077 0.007368 0.041493 40.445349
2006-06-08 04:44:43 51°13.694 2°55.808 21.4181 0.007368 0.041493 40.445349
2006-06-08 04:44:48 51°13.697 2°55.801 21.4117 0.007368 0.041493 40.445349
2006-06-08 04:44:52 51°13.7 2°55.796 21.4065 0.007368 0.041494 40.445349
2006-06-08 04:44:58 51°13.703 2°55.789 21.3952 0.007368 0.041493 40.41164
2006-06-08 04:45:03 51°13.706 2°55.782 21.3843 0.007368 0.041494 40.445349
2006-06-08 04:45:07 51°13.707 2°55.778 21.3952 0.007368 0.041494 40.445349
2006-06-08 04:45:12 51°13.71 2°55.773 21.3633 0.007368 0.041494 40.445349
2006-06-08 04:45:17 51°13.711 2°55.769 21.3609 0.007368 0.041494 40.445349
2006-06-08 04:45:22 51°13.713 2°55.765 21.4286 0.007368 0.041494 40.37793
2006-06-08 04:45:27 51°13.714 2°55.763 21.4579 0.007368 0.041494 40.41164
2006-06-08 04:45:32 51°13.715 2°55.762 21.4691 0.007368 0.041494 40.41164
2006-06-08 04:45:37 51°13.715 2°55.762 21.4786 0.007368 0.041494 40.41164
2006-06-08 04:45:42 51°13.715 2°55.764 21.496 0.007368 0.041494 40.37793
2006-06-08 04:45:47 51°13.716 2°55.767 21.4302 0.007368 0.041494 40.37793
2006-06-08 04:45:52 51°13.716 2°55.77 21.4067 0.007368 0.041494 40.37793
2006-06-08 04:45:57 51°13.717 2°55.773 21.3576 0.007368 0.041495 40.344221
2006-06-08 04:46:02 51°13.717 2°55.776 21.3607 0.007368 0.041495 40.344221
2006-06-08 04:46:07 51°13.718 2°55.779 21.3369 0.007368 0.041496 40.344221
2006-06-08 04:46:12 51°13.718 2°55.781 21.3429 0.007368 0.041496 40.344221
2006-06-08 04:46:16 51°13.719 2°55.781 21.3689 0.007368 0.041496 40.37793
2006-06-08 04:46:22 51°13.719 2°55.782 21.3227 0.007368 0.041496 40.344221
2006-06-08 04:46:27 51°13.718 2°55.781 21.3087 0.007368 0.041497 40.310512
2006-06-08 04:46:32 51°13.718 2°55.779 21.395 0.007368 0.041497 40.310512
2006-06-08 04:46:37 51°13.717 2°55.777 21.3942 0.007368 0.041497 40.310512
2006-06-08 04:46:42 51°13.716 2°55.775 21.428 0.007368 0.041497 40.310512
2006-06-08 04:46:47 51°13.715 2°55.772 21.3938 0.007368 0.041497 40.310512
2006-06-08 04:46:53 51°13.714 2°55.768 21.3801 0.007368 0.041497 40.344221
2006-06-08 04:46:58 51°13.712 2°55.764 21.4202 0.007368 0.041498 40.310512
2006-06-08 04:47:03 51°13.711 2°55.761 21.4177 0.007368 0.041498 40.310512
2006-06-08 04:47:08 51°13.71 2°55.758 21.4094 0.007368 0.041498 40.276802
2006-06-08 04:47:12 51°13.709 2°55.755 21.4101 0.007368 0.041498 40.276802
2006-06-08 04:47:18 51°13.708 2°55.752 21.4132 0.007368 0.041498 40.310512
2006-06-08 04:47:23 51°13.707 2°55.749 21.4146 0.007368 0.041498 40.310512
2006-06-08 04:47:28 51°13.706 2°55.748 21.4226 0.007368 0.041498 40.276802
2006-06-08 04:47:32 51°13.706 2°55.746 21.4244 0.007368 0.041498 40.276802
2006-06-08 04:47:37 51°13.706 2°55.746 21.4284 0.007368 0.041498 40.276802
2006-06-08 04:47:43 51°13.706 2°55.745 21.4258 0.007368 0.041498 40.310512
2006-06-08 04:47:47 51°13.706 2°55.745 21.4257 0.007368 0.041498 40.276802
2006-06-08 04:47:52 51°13.707 2°55.745 21.4268 0.007368 0.041498 40.276802
2006-06-08 04:47:56 51°13.707 2°55.745 21.4268 0.007368 0.041498 40.276802
2006-06-08 04:48:02 51°13.709 2°55.745 21.4269 0.007368 0.041499 40.243093
2006-06-08 04:48:07 51°13.71 2°55.746 21.4289 0.007368 0.041498 40.276802
2006-06-08 04:48:12 51°13.711 2°55.747 21.4317 0.007368 0.041498 40.276802
2006-06-08 04:48:17 51°13.713 2°55.747 21.4332 0.007368 0.041499 40.276802
2006-06-08 04:48:22 51°13.714 2°55.748 21.4435 0.007368 0.041499 40.243093
2006-06-08 04:48:27 51°13.716 2°55.749 21.4528 0.007368 0.041499 40.243093
2006-06-08 04:48:32 51°13.718 2°55.749 21.4753 0.007368 0.041499 40.243093
2006-06-08 04:48:36 51°13.72 2°55.749 21.4798 0.007368 0.041499 40.243093
2006-06-08 04:48:42 51°13.723 2°55.749 21.4981 0.007368 0.041499 40.243093
2006-06-08 04:48:47 51°13.726 2°55.748 21.5009 0.007368 0.041499 40.243093
2006-06-08 04:48:52 51°13.729 2°55.747 21.5187 0.007368 0.041499 40.243093
2006-06-08 04:48:56 51°13.732 2°55.746 21.5114 0.007368 0.041499 40.209383
2006-06-08 04:49:02 51°13.736 2°55.743 21.5096 0.007368 0.041499 40.209383
2006-06-08 04:49:07 51°13.74 2°55.739 21.4973 0.007368 0.041499 40.209383
2006-06-08 04:49:12 51°13.744 2°55.734 21.4922 0.007368 0.0415 40.175674
2006-06-08 04:49:17 51°13.748 2°55.729 21.3675 0.007368 0.0415 40.209383
2006-06-08 04:49:21 51°13.752 2°55.724 21.3921 0.007368 0.0415 40.209383
2006-06-08 04:49:27 51°13.759 2°55.716 21.3322 0.007368 0.0415 40.209383
2006-06-08 04:49:32 51°13.765 2°55.709 21.3476 0.007368 0.0415 40.209383
2006-06-08 04:49:38 51°13.772 2°55.7 21.2911 0.007368 0.0415 40.209383
2006-06-08 04:49:42 51°13.777 2°55.693 21.3375 0.007368 0.0415 40.209383
2006-06-08 04:49:45 51°13.782 2°55.688 21.3236 0.007368 0.0415 40.209383
2006-06-08 04:49:52 51°13.787 2°55.682 21.2936 0.007368 0.0415 40.209383
2006-06-08 04:49:56 51°13.799 2°55.669 21.2427 0.007368 0.0415 40.209383
2006-06-08 04:50:02 51°13.809 2°55.658 21.2414 0.007368 0.0415 40.209383
2006-06-08 04:50:07 51°13.819 2°55.648 21.2205 0.007368 0.0415 40.209383
2006-06-08 04:50:12 51°13.829 2°55.639 21.1778 0.007368 0.0415 40.209383
2006-06-08 04:50:17 51°13.839 2°55.63 21.234 0.007368 0.0415 40.175674
2006-06-08 04:50:22 51°13.85 2°55.62 21.1858 0.007368 0.0415 40.175674
2006-06-08 04:50:26 51°13.859 2°55.613 21.2409 0.007368 0.0415 40.209383
2006-06-08 04:50:31 51°13.87 2°55.604 21.1682 0.007368 0.0415 40.175674
2006-06-08 04:50:36 51°13.881 2°55.595 21.1845 0.007368 0.0415 40.175674
2006-06-08 04:50:42 51°13.896 2°55.585 21.2736 0.007368 0.0415 40.175674
2006-06-08 04:50:47 51°13.908 2°55.576 21.2259 0.007368 0.0415 40.175674
2006-06-08 04:50:52 51°13.92 2°55.567 21.1737 0.007368 0.0415 40.175674
2006-06-08 04:50:57 51°13.932 2°55.558 21.2442 0.007368 0.041501 40.141965
2006-06-08 04:51:02 51°13.945 2°55.55 21.2018 0.007368 0.041501 40.175674
2006-06-08 04:51:07 51°13.958 2°55.541 21.1878 0.007368 0.041501 40.209383
2006-06-08 04:51:12 51°13.971 2°55.533 21.1497 0.007368 0.041501 40.209383
2006-06-08 04:51:17 51°13.984 2°55.524 21.0986 0.007368 0.041501 40.141965
2006-06-08 04:51:22 51°13.997 2°55.516 21.1316 0.007368 0.041501 40.141965
2006-06-08 04:51:27 51°14.009 2°55.508 21.1659 0.007368 0.041501 40.175674
2006-06-08 04:51:32 51°14.021 2°55.5 21.1833 0.007368 0.041502 40.141965
2006-06-08 04:51:36 51°14.031 2°55.494 21.2305 0.007368 0.041502 40.175674
2006-06-08 04:51:42 51°14.044 2°55.485 21.2292 0.007368 0.041502 40.175674
2006-06-08 04:51:47 51°14.055 2°55.478 21.3004 0.007368 0.041502 40.141965
2006-06-08 04:51:52 51°14.066 2°55.471 21.32 0.007368 0.041502 40.141965
2006-06-08 04:51:57 51°14.077 2°55.463 21.3155 0.007368 0.041502 40.108255
2006-06-08 04:52:02 51°14.088 2°55.456 21.315 0.007368 0.041502 40.108255
2006-06-08 04:52:07 51°14.099 2°55.447 21.3171 0.007368 0.041502 40.108255
2006-06-08 04:52:12 51°14.11 2°55.439 21.2798 0.007368 0.041502 40.108255
2006-06-08 04:52:17 51°14.122 2°55.431 21.2675 0.007368 0.041502 40.108255
2006-06-08 04:52:22 51°14.133 2°55.422 21.2996 0.007368 0.041503 40.108255
2006-06-08 04:52:27 51°14.144 2°55.413 21.3173 0.007368 0.041503 40.108255
2006-06-08 04:52:32 51°14.156 2°55.404 21.3163 0.007368 0.041503 40.108255
2006-06-08 04:52:36 51°14.165 2°55.397 21.3277 0.007368 0.041503 40.108255
2006-06-08 04:52:42 51°14.178 2°55.384 21.3467 0.007368 0.041503 40.108255
2006-06-08 04:52:48 51°14.192 2°55.371 21.3584 0.007368 0.041503 40.074546
2006-06-08 04:52:52 51°14.201 2°55.361 21.3488 0.007368 0.041504 40.074546
2006-06-08 04:52:57 51°14.211 2°55.348 21.3488 0.007368 0.041503 40.074546
2006-06-08 04:53:02 51°14.223 2°55.335 21.347 0.007368 0.041504 40.074546
2006-06-08 04:53:07 51°14.233 2°55.32 21.3163 0.007368 0.041504 40.040836
2006-06-08 04:53:12 51°14.243 2°55.305 21.2989 0.007368 0.041504 40.040836
2006-06-08 04:53:17 51°14.253 2°55.289 21.3391 0.007368 0.041504 40.040836
2006-06-08 04:53:22 51°14.263 2°55.273 21.3182 0.007368 0.041504 40.040836
2006-06-08 04:53:27 51°14.273 2°55.256 21.2235 0.007368 0.041505 40.040836
2006-06-08 04:53:32 51°14.282 2°55.238 21.2527 0.007368 0.041505 40.074546
2006-06-08 04:53:36 51°14.289 2°55.224 21.2662 0.007368 0.041505 40.040836
2006-06-08 04:53:42 51°14.3 2°55.202 21.3232 0.007368 0.041505 40.040836
2006-06-08 04:53:47 51°14.309 2°55.183 21.2786 0.007368 0.041506 40.040836
2006-06-08 04:53:51 51°14.316 2°55.168 21.2296 0.007368 0.041506 40.007127
2006-06-08 04:53:56 51°14.324 2°55.149 21.1584 0.007368 0.041506 40.040836
2006-06-08 04:54:02 51°14.335 2°55.126 21.1534 0.007368 0.041507 40.040836
2006-06-08 04:54:07 51°14.343 2°55.106 21.2039 0.007368 0.041507 40.040836
2006-06-08 04:54:12 51°14.353 2°55.087 21.1949 0.007368 0.041507 40.040836
2006-06-08 04:54:16 51°14.36 2°55.072 20.9854 0.007368 0.041507 40.007127
2006-06-08 04:54:22 51°14.372 2°55.049 20.9979 0.007368 0.041507 40.007127
2006-06-08 04:54:27 51°14.383 2°55.031 21.167 0.007368 0.041507 40.074546
2006-06-08 04:54:32 51°14.394 2°55.013 21.0198 0.007368 0.041507 40.040836
2006-06-08 04:54:37 51°14.406 2°54.995 20.912 0.007368 0.041507 40.040836
2006-06-08 04:54:42 51°14.419 2°54.978 20.8745 0.007368 0.041507 40.040836
2006-06-08 04:54:47 51°14.431 2°54.96 20.9359 0.007368 0.041507 39.973418
2006-06-08 04:54:52 51°14.444 2°54.944 20.9041 0.007368 0.041508 40.040836
2006-06-08 04:54:56 51°14.455 2°54.93 20.9883 0.007368 0.041508 39.939708
2006-06-08 04:55:02 51°14.471 2°54.909 20.9299 0.007368 0.041509 40.007127
2006-06-08 04:55:08 51°14.487 2°54.888 20.9456 0.007368 0.041509 40.007127
2006-06-08 04:55:11 51°14.495 2°54.878 21.0103 0.007368 0.041509 40.007127
2006-06-08 04:55:17 51°14.512 2°54.858 21.0205 0.007368 0.041509 39.973418
2006-06-08 04:55:22 51°14.526 2°54.841 20.9824 0.007265 0.041021 39.973418
2006-06-08 04:55:27 51°14.54 2°54.825 20.9414 0.007265 0.041021 39.939708
2006-06-08 04:55:31 51°14.551 2°54.812 20.9924 0.007368 0.04151 39.973418
2006-06-08 04:55:38 51°14.571 2°54.791 20.9661 0.007368 0.04151 39.973418
2006-06-08 04:55:42 51°14.583 2°54.778 21.0128 0.007368 0.04151 39.973418
2006-06-08 04:55:47 51°14.598 2°54.764 21.006 0.007368 0.04151 39.939708
2006-06-08 04:55:52 51°14.613 2°54.748 21.0117 0.007368 0.04151 39.905999
2006-06-08 04:55:56 51°14.624 2°54.736 21.0247 0.007368 0.041511 39.905999
2006-06-08 04:56:02 51°14.642 2°54.717 21.0194 0.007368 0.041511 39.939708
2006-06-08 04:56:07 51°14.656 2°54.701 21.0296 0.007368 0.041511 39.939708
2006-06-08 04:56:12 51°14.67 2°54.685 21.0833 0.007368 0.041511 39.939708
2006-06-08 04:56:15 51°14.679 2°54.675 21.0864 0.007265 0.041023 39.872289
2006-06-08 04:56:22 51°14.699 2°54.652 21.0774 0.007368 0.041512 39.83858
2006-06-08 04:56:27 51°14.712 2°54.634 21.0377 0.007368 0.041513 39.804871
2006-06-08 04:56:32 51°14.726 2°54.615 21.0841 0.007368 0.041513 39.872289
2006-06-08 04:56:38 51°14.742 2°54.593 21.0084 0.007368 0.041513 39.83858
2006-06-08 04:56:42 51°14.752 2°54.578 21.0643 0.007368 0.041513 39.83858
2006-06-08 04:56:47 51°14.765 2°54.559 21.0035 0.007368 0.041514 39.872289
2006-06-08 04:56:51 51°14.776 2°54.544 21.0078 0.007368 0.041514 39.872289
2006-06-08 04:56:56 51°14.789 2°54.525 21.0245 0.007368 0.041514 39.83858
2006-06-08 04:57:02 51°14.805 2°54.503 21.0219 0.007368 0.041514 39.905999
2006-06-08 04:57:07 51°14.818 2°54.484 20.9942 0.007368 0.041514 39.83858
2006-06-08 04:57:12 51°14.831 2°54.466 20.9697 0.007368 0.041514 39.83858
2006-06-08 04:57:17 51°14.845 2°54.449 20.9759 0.007265 0.041026 39.83858
2006-06-08 04:57:22 51°14.859 2°54.432 20.9917 0.007265 0.041026 39.83858
2006-06-08 04:57:27 51°14.874 2°54.416 21.0241 0.007368 0.041515 39.83858
2006-06-08 04:57:32 51°14.888 2°54.401 21.0196 0.007368 0.041515 39.872289
2006-06-08 04:57:37 51°14.903 2°54.387 21.0555 0.007368 0.041515 39.83858
2006-06-08 04:57:42 51°14.918 2°54.372 21.0628 0.007368 0.041515 39.83858
2006-06-08 04:57:47 51°14.932 2°54.358 21.0457 0.007265 0.041027 39.83858
2006-06-08 04:57:52 51°14.947 2°54.344 19.9687 0.007265 0.041027 39.804871
2006-06-08 04:57:57 51°14.962 2°54.329 17.3976 0.007368 0.041516 39.804871
2006-06-08 04:58:02 51°14.976 2°54.315 16.2661 0.007368 0.041513 39.83858
2006-06-08 04:58:07 51°14.99 2°54.301 15.8126 0.007368 0.041537 39.771161
2006-06-08 04:58:12 51°15.005 2°54.287 15.6057 0.007368 0.041537 39.771161
2006-06-08 04:58:17 51°15.019 2°54.272 15.421 3.054479 19.80952 50.962683
2006-06-08 04:58:22 51°15.034 2°54.258 15.2979 3.759939 25.306241 41.119537
2006-06-08 04:58:27 51°15.048 2°54.244 15.2326 3.974806 27.548361 32.692187
2006-06-08 04:58:32 51°15.063 2°54.231 15.153 4.026052 29.385833 32.759606
2006-06-08 04:58:36 51°15.075 2°54.221 15.137 4.134523 31.174342 31.41123
2006-06-08 04:58:42 51°15.093 2°54.205 15.0485 4.134523 31.174342 31.41123
2006-06-08 04:58:46 51°15.105 2°54.194 14.9971 4.11725 31.755578 30.737042
2006-06-08 04:58:52 51°15.123 2°54.178 14.9625 4.081737 31.889276 30.332529
2006-06-08 04:58:56 51°15.134 2°54.166 14.931 4.036105 31.796801 29.961725
2006-06-08 04:59:02 51°15.152 2°54.148 14.939 2.996454 23.004659 29.557212
2006-06-08 04:59:07 51°15.166 2°54.133 14.9339 4.02789 32.03643 29.220118
2006-06-08 04:59:12 51°15.18 2°54.116 14.89 4.02789 32.03643 29.220118
2006-06-08 04:59:17 51°15.194 2°54.099 14.872 4.001965 31.880511 28.849315
2006-06-08 04:59:22 51°15.207 2°54.08 14.8658 4.000069 31.96351 28.444802
2006-06-08 04:59:27 51°15.22 2°54.061 14.86 3.985948 31.916456 28.073999
2006-06-08 04:59:32 51°15.232 2°54.042 14.8747 3.964239 31.765411 27.602067
2006-06-08 04:59:35 51°15.24 2°54.03 14.8682 3.97383 31.881045 27.096426
2006-06-08 04:59:41 51°15.255 2°54.006 14.8365 3.97383 31.881045 27.096426
2006-06-08 04:59:46 51°15.268 2°53.986 14.8273 3.961289 31.793997 26.557076
2006-06-08 04:59:51 51°15.28 2°53.966 14.8349 3.960868 31.817767 26.017725
2006-06-08 04:59:58 51°15.299 2°53.939 14.8278 3.94622 31.711716 25.512084
2006-06-08 05:00:02 51°15.309 2°53.924 14.8466 3.948223 31.744325 25.107571
2006-06-08 05:00:07 51°15.323 2°53.906 14.8374 3.952438 31.790058 24.770477
2006-06-08 05:00:12 51°15.337 2°53.889 14.828 3.952438 31.790058 24.770477
2006-06-08 05:00:18 51°15.354 2°53.87 14.8369 3.941689 31.707812 24.500802
2006-06-08 05:00:22 51°15.366 2°53.857 14.8622 3.960975 31.894255 24.298546
2006-06-08 05:00:27 51°15.381 2°53.842 14.8517 3.950647 31.813889 24.264836
2006-06-08 05:00:31 51°15.393 2°53.829 14.8478 3.955811 31.861458 24.231127
2006-06-08 05:00:37 51°15.411 2°53.811 14.8362 3.948645 31.802681 24.298546
2006-06-08 05:00:42 51°15.425 2°53.797 14.8284 3.948645 31.802681 24.298546
2006-06-08 05:00:47 51°15.441 2°53.781 14.8153 3.958973 31.897228 24.433383
2006-06-08 05:00:52 51°15.455 2°53.766 14.8167 3.938423 31.716482 24.568221
2006-06-08 05:00:57 51°15.47 2°53.751 14.818 3.933259 31.670159 24.770477
2006-06-08 05:01:02 51°15.485 2°53.735 14.8167 3.92251 31.571934 24.905315
2006-06-08 05:01:07 51°15.5 2°53.719 14.807 3.938739 31.720544 25.107571
2006-06-08 05:01:12 51°15.513 2°53.702 14.7984 3.938739 31.720544 25.107571
2006-06-08 05:01:17 51°15.528 2°53.684 14.8092 3.946959 31.801067 25.276118
2006-06-08 05:01:22 51°15.541 2°53.667 14.8056 3.939372 31.73787 25.478375
2006-06-08 05:01:26 51°15.552 2°53.652 14.8127 3.942849 31.78076 25.646922
2006-06-08 05:01:32 51°15.569 2°53.631 14.8037 3.950753 31.853599 25.815469
2006-06-08 05:01:36 51°15.58 2°53.616 14.7897 3.950753 31.853599 25.815469
2006-06-08 05:01:42 51°15.597 2°53.595 14.8027 3.950859 31.857626 25.950306
2006-06-08 05:01:47 51°15.611 2°53.577 14.8114 3.937686 31.747286 26.051435
2006-06-08 05:01:52 51°15.625 2°53.56 14.7959 3.933471 31.715563 26.186272
2006-06-08 05:01:56 51°15.637 2°53.547 14.7906 3.93895 31.765406 26.253691
2006-06-08 05:02:02 51°15.654 2°53.528 14.791 3.94854 31.852818 26.2874
2006-06-08 05:02:07 51°15.669 2°53.513 14.7913 3.94443 31.818958 26.388529
2006-06-08 05:02:12 51°15.684 2°53.498 14.7847 3.94443 31.818958 26.388529
2006-06-08 05:02:17 51°15.699 2°53.483 14.7782 3.950543 31.879455 26.422238
2006-06-08 05:02:22 51°15.714 2°53.469 14.7711 3.930836 31.700489 26.489657
2006-06-08 05:02:26 51°15.726 2°53.457 14.7684 3.953599 31.907554 26.489657
2006-06-08 05:02:32 51°15.744 2°53.439 14.7533 3.951913 31.898568 26.557076
2006-06-08 05:02:36 51°15.756 2°53.428 14.7528 3.947803 31.863457 26.624494
2006-06-08 05:02:42 51°15.775 2°53.411 14.7438 3.947803 31.863457 26.624494
2006-06-08 05:02:47 51°15.79 2°53.397 14.7388 3.931996 31.726873 26.691913
2006-06-08 05:02:52 51°15.805 2°53.383 14.7231 3.951386 31.901861 26.793042
2006-06-08 05:02:56 51°15.817 2°53.372 14.705 3.949595 31.891923 26.927879
2006-06-08 05:03:02 51°15.836 2°53.355 14.7001 3.947171 31.875675 27.062717
2006-06-08 05:03:07 51°15.851 2°53.34 14.7096 3.947593 31.890593 27.163845
2006-06-08 05:03:12 51°15.866 2°53.325 14.6923 3.947593 31.890593 27.163845
2006-06-08 05:03:17 51°15.881 2°53.309 14.6875 3.947804 31.899294 27.231264
2006-06-08 05:03:22 51°15.895 2°53.294 14.6811 3.942324 31.856139 27.298683
2006-06-08 05:03:27 51°15.91 2°53.278 14.6738 3.948963 31.923971 27.332392
2006-06-08 05:03:32 51°15.925 2°53.262 14.6707 3.944115 31.88959 27.43352
2006-06-08 05:03:37 51°15.94 2°53.247 14.6607 3.944115 31.88959 27.43352
2006-06-08 05:03:42 51°15.955 2°53.233 14.6396 3.93421 31.813333 27.43352
2006-06-08 05:03:47 51°15.97 2°53.22 14.6423 3.939795 31.870464 27.46723
2006-06-08 05:03:52 51°15.986 2°53.207 14.6174 3.937793 31.857369 27.46723
2006-06-08 05:03:57 51°16.002 2°53.195 14.6126 3.939901 31.88566 27.500939
2006-06-08 05:04:02 51°16.017 2°53.183 14.6048 3.945065 31.935951 27.500939
2006-06-08 05:04:07 51°16.033 2°53.171 14.5867 3.941903 31.914259 27.46723
2006-06-08 05:04:12 51°16.049 2°53.16 14.5686 3.941903 31.914259 27.46723
2006-06-08 05:04:15 51°16.058 2°53.153 14.5695 3.944011 31.942589 27.43352
2006-06-08 05:04:22 51°16.08 2°53.136 14.5666 3.942009 31.933836 27.399811
2006-06-08 05:04:27 51°16.096 2°53.125 14.5756 3.946224 31.982467 27.399811
2006-06-08 05:04:32 51°16.112 2°53.113 14.5703 3.93811 31.922866 27.399811
2006-06-08 05:04:37 51°16.127 2°53.1 14.579 3.938532 31.934136 27.43352
2006-06-08 05:04:42 51°16.143 2°53.088 14.5788 3.938532 31.934136 27.43352
2006-06-08 05:04:47 51°16.159 2°53.076 14.5793 3.936846 31.931965 27.500939
2006-06-08 05:04:52 51°16.174 2°53.063 14.5817 3.933684 31.917079 27.568358
2006-06-08 05:04:58 51°16.192 2°53.047 14.5739 3.955288 32.11622 27.736905
2006-06-08 05:05:02 51°16.205 2°53.037 14.5827 3.956974 32.135239 27.804324
2006-06-08 05:05:07 51°16.22 2°53.023 14.5872 3.956974 32.135239 27.804324
2006-06-08 05:05:12 51°16.235 2°53.01 14.6114 3.958977 32.155243 27.939161
2006-06-08 05:05:17 51°16.251 2°52.997 14.6107 3.960663 32.16988 28.040289
2006-06-08 05:05:22 51°16.266 2°52.984 14.6419 3.957291 32.137473 28.107708
2006-06-08 05:05:27 51°16.282 2°52.973 14.6248 3.963298 32.192475 28.208836
2006-06-08 05:05:32 51°16.298 2°52.963 14.6237 3.964668 32.204879 28.242546
2006-06-08 05:05:37 51°16.314 2°52.954 14.6106 3.9653 32.208091 28.276255
2006-06-08 05:05:42 51°16.33 2°52.945 14.6135 3.9653 32.208091 28.276255
2006-06-08 05:05:47 51°16.347 2°52.936 14.5888 3.965511 32.204346 28.309965
2006-06-08 05:05:52 51°16.363 2°52.927 14.5895 3.965721 32.197465 28.309965
2006-06-08 05:05:57 51°16.38 2°52.918 14.576 3.966459 32.193473 28.377383
2006-06-08 05:06:02 51°16.396 2°52.91 14.5675 3.966353 32.188129 28.444802
2006-06-08 05:06:07 51°16.412 2°52.901 14.5674 3.96825 32.204661 28.512221
2006-06-08 05:06:11 51°16.425 2°52.894 14.5455 3.96825 32.204661 28.512221
2006-06-08 05:06:16 51°16.442 2°52.885 14.5293 3.967302 32.202982 28.647059
2006-06-08 05:06:22 51°16.461 2°52.874 14.5214 3.970147 32.23438 28.714477
2006-06-08 05:06:27 51°16.477 2°52.864 14.5117 3.97078 32.248903 28.748187
2006-06-08 05:06:32 51°16.493 2°52.854 14.4985 3.972045 32.272307 28.815606
2006-06-08 05:06:37 51°16.509 2°52.844 14.4779 3.972782 32.284656 28.815606
2006-06-08 05:06:42 51°16.525 2°52.833 14.4883 3.972782 32.284656 28.815606
2006-06-08 05:06:47 51°16.541 2°52.823 14.4772 3.973731 32.303962 28.781896
2006-06-08 05:06:52 51°16.556 2°52.812 14.4791 3.974364 32.319154 28.815606
2006-06-08 05:06:57 51°16.572 2°52.801 14.4631 3.974785 32.334339 28.883024
2006-06-08 05:07:02 51°16.588 2°52.79 14.4661 3.975313 32.354918 28.916734
2006-06-08 05:07:07 51°16.603 2°52.779 14.4719 3.97584 32.374884 28.984153
2006-06-08 05:07:12 51°16.619 2°52.768 14.4764 3.97584 32.374884 28.984153
2006-06-08 05:07:16 51°16.631 2°52.76 14.4629 3.976472 32.388224 29.085281
2006-06-08 05:07:22 51°16.65 2°52.748 14.4722 3.976156 32.389788 29.1527
2006-06-08 05:07:27 51°16.666 2°52.739 14.4756 3.976578 32.398053 29.220118
2006-06-08 05:07:32 51°16.682 2°52.73 14.4738 3.976999 32.408857 29.321247
2006-06-08 05:07:37 51°16.698 2°52.721 14.4748 3.977315 32.412998 29.354956
2006-06-08 05:07:42 51°16.714 2°52.712 14.4732 3.977315 32.412998 29.354956
2006-06-08 05:07:47 51°16.731 2°52.703 14.4661 3.977421 32.413321 29.422375
2006-06-08 05:07:52 51°16.746 2°52.694 14.4687 3.978159 32.420658 29.489794
2006-06-08 05:07:56 51°16.759 2°52.686 14.4636 3.978264 32.424154 29.590922
2006-06-08 05:08:02 51°16.778 2°52.675 14.4645 3.979002 32.430857 29.658341
2006-06-08 05:08:07 51°16.793 2°52.666 14.4624 3.979318 32.43246 29.759469
2006-06-08 05:08:12 51°16.809 2°52.657 14.4678 3.979318 32.43246 29.759469
2006-06-08 05:08:17 51°16.824 2°52.647 14.4752 3.979845 32.438518 29.894306
2006-06-08 05:08:22 51°16.84 2°52.638 14.4796 3.980056 32.443608 30.029144
2006-06-08 05:08:27 51°16.856 2°52.629 14.4836 3.980477 32.44871 30.2314
2006-06-08 05:08:32 51°16.871 2°52.62 14.4835 3.980899 32.453176 30.399947
2006-06-08 05:08:36 51°16.884 2°52.614 14.4791 3.981215 32.45732 30.602204
2006-06-08 05:08:42 51°16.902 2°52.603 14.4903 3.981215 32.45732 30.602204
2006-06-08 05:08:47 51°16.918 2°52.595 14.4824 3.98132 32.460185 30.737042
2006-06-08 05:08:52 51°16.934 2°52.586 14.4945 3.98132 32.456372 30.83817
2006-06-08 05:08:57 51°16.95 2°52.577 14.4858 3.981215 32.452238 31.006717
2006-06-08 05:09:02 51°16.965 2°52.568 14.4872 3.981426 32.449707 31.141554
2006-06-08 05:09:07 51°16.981 2°52.559 14.4963 3.981847 32.452902 31.242683
2006-06-08 05:09:12 51°16.997 2°52.55 14.4886 3.981847 32.452902 31.242683
2006-06-08 05:09:17 51°17.012 2°52.54 14.4854 3.981636 32.450987 31.343811
2006-06-08 05:09:22 51°17.028 2°52.531 14.4863 3.982269 32.454827 31.478648
2006-06-08 05:09:27 51°17.043 2°52.52 14.4906 3.982269 32.453556 31.680905
2006-06-08 05:09:32 51°17.058 2°52.509 14.4964 3.98269 32.455481 31.782033
2006-06-08 05:09:37 51°17.073 2°52.498 14.4885 3.983112 32.458676 31.883161
2006-06-08 05:09:42 51°17.088 2°52.486 14.481 3.983112 32.458676 31.883161
2006-06-08 05:09:47 51°17.103 2°52.474 14.4903 3.983533 32.463776 31.95058
2006-06-08 05:09:51 51°17.115 2°52.464 14.4903 3.983217 32.462174 31.984289
2006-06-08 05:09:58 51°17.136 2°52.446 14.4834 3.98406 32.47047 32.017999
2006-06-08 05:10:02 51°17.148 2°52.437 14.4834 3.984271 32.47175 32.051708
2006-06-08 05:10:07 51°17.163 2°52.425 14.4785 3.984587 32.473352 32.017999
2006-06-08 05:10:12 51°17.178 2°52.415 14.4776 3.984587 32.473352 32.017999
2006-06-08 05:10:17 51°17.194 2°52.404 14.478 3.98522 32.481004 32.017999
2006-06-08 05:10:22 51°17.209 2°52.395 14.4678 3.98522 32.48164 32.017999
2006-06-08 05:10:27 51°17.225 2°52.385 14.4709 3.985746 32.485157 32.017999
2006-06-08 05:10:32 51°17.24 2°52.376 14.4656 3.986063 32.489301 32.051708
2006-06-08 05:10:37 51°17.256 2°52.367 14.4633 3.986484 32.495676 32.051708
2006-06-08 05:10:42 51°17.272 2°52.359 14.4633 3.986484 32.495676 32.051708
2006-06-08 05:10:47 51°17.288 2°52.35 14.4593 3.98659 32.498542 32.085418
2006-06-08 05:10:52 51°17.304 2°52.341 14.4681 3.986695 32.501408 32.085418
2006-06-08 05:10:57 51°17.319 2°52.332 14.4453 3.986801 32.504275 32.051708
2006-06-08 05:11:02 51°17.335 2°52.322 14.4435 3.98659 32.506177 32.051708
2006-06-08 05:11:06 51°17.347 2°52.314 14.4371 3.98659 32.50936 32.017999
2006-06-08 05:11:11 51°17.363 2°52.304 14.4336 3.98659 32.50936 32.017999
2006-06-08 05:11:16 51°17.378 2°52.293 14.4218 3.986168 32.507437 31.95058
2006-06-08 05:11:22 51°17.396 2°52.281 14.4207 3.986274 32.510942 31.883161
2006-06-08 05:11:27 51°17.412 2°52.27 14.4138 3.986063 32.510298 31.815742
2006-06-08 05:11:32 51°17.427 2°52.259 14.4213 3.985536 32.511874 31.748324
2006-06-08 05:11:36 51°17.439 2°52.249 14.4122 3.98522 32.514095 31.748324
2006-06-08 05:11:42 51°17.457 2°52.235 14.4096 3.98522 32.514095 31.748324
2006-06-08 05:11:47 51°17.472 2°52.223 14.4055 3.984482 32.51248 31.748324
2006-06-08 05:11:51 51°17.484 2°52.214 14.4117 3.984166 32.514702 31.782033
2006-06-08 05:11:56 51°17.499 2°52.202 14.4157 3.98385 32.519474 31.782033
2006-06-08 05:12:02 51°17.518 2°52.188 14.416 3.98385 32.523938 31.748324
2006-06-08 05:12:07 51°17.533 2°52.178 14.4207 3.983745 32.52553 31.748324
2006-06-08 05:12:12 51°17.548 2°52.167 14.4163 3.983745 32.52553 31.748324
2006-06-08 05:12:17 51°17.564 2°52.157 14.4181 3.983429 32.525203 31.714614
2006-06-08 05:12:22 51°17.579 2°52.148 14.4264 3.983534 32.529352 31.748324
2006-06-08 05:12:27 51°17.595 2°52.138 14.4257 3.98364 32.531588 31.748324
2006-06-08 05:12:31 51°17.607 2°52.131 14.424 3.98364 32.531588 31.815742
2006-06-08 05:12:35 51°17.62 2°52.123 14.4239 3.984167 32.533833 31.815742
2006-06-08 05:12:42 51°17.642 2°52.11 14.4254 3.984167 32.533833 31.815742
2006-06-08 05:12:47 51°17.658 2°52.101 14.4241 3.984588 32.536395 31.883161
2006-06-08 05:12:51 51°17.67 2°52.093 14.4336 3.984904 32.537997 31.916871
2006-06-08 05:12:56 51°17.686 2°52.083 14.4227 3.984693 32.534164 31.984289
2006-06-08 05:13:02 51°17.704 2°52.07 14.4221 3.98501 32.535766 32.017999
2006-06-08 05:13:07 51°17.72 2°52.06 14.4193 3.984904 32.53353 32.085418
2006-06-08 05:13:12 51°17.735 2°52.05 14.4222 3.984904 32.53353 32.085418
2006-06-08 05:13:16 51°17.747 2°52.041 14.4096 3.984693 32.531612 32.085418
2006-06-08 05:13:22 51°17.766 2°52.029 14.4154 3.983956 32.525535 32.119127
2006-06-08 05:13:27 51°17.781 2°52.02 14.4018 3.983745 32.522341 32.119127
2006-06-08 05:13:32 51°17.797 2°52.011 14.3964 3.983429 32.520738 32.085418
2006-06-08 05:13:36 51°17.809 2°52.003 14.3831 3.983007 32.518814 32.017999
2006-06-08 05:13:41 51°17.825 2°51.993 14.3752 3.983007 32.518814 32.017999
2006-06-08 05:13:48 51°17.847 2°51.979 14.3703 3.98227 32.514012 31.95058
2006-06-08 05:13:52 51°17.859 2°51.972 14.3657 3.981532 32.50921 31.849452
2006-06-08 05:13:57 51°17.874 2°51.961 14.3591 3.980583 32.503763 31.714614
2006-06-08 05:14:02 51°17.89 2°51.951 14.3495 3.979846 32.500873 31.613486
2006-06-08 05:14:07 51°17.905 2°51.94 14.3477 3.97837 32.49509 31.512358
2006-06-08 05:14:12 51°17.921 2°51.93 14.3386 3.97837 32.49509 31.512358
2006-06-08 05:14:18 51°17.939 2°51.918 14.3318 3.977211 32.492185 31.478648
2006-06-08 05:14:21 51°17.949 2°51.912 14.3358 3.975736 32.487038 31.478648
2006-06-08 05:14:26 51°17.964 2°51.902 14.3474 3.974893 32.485098 31.37752
2006-06-08 05:14:31 51°17.98 2°51.892 14.3391 3.973945 32.485388 31.343811
2006-06-08 05:14:38 51°18.002 2°51.879 14.331 3.973102 32.484087 31.310101
2006-06-08 05:14:42 51°18.015 2°51.871 14.3329 3.973102 32.484087 31.310101
2006-06-08 05:14:47 51°18.03 2°51.861 14.3314 3.972259 32.480231 31.242683
2006-06-08 05:14:52 51°18.046 2°51.851 14.3258 3.971521 32.480528 31.242683
2006-06-08 05:14:57 51°18.062 2°51.84 14.3186 3.970467 32.473473 31.175264
2006-06-08 05:15:01 51°18.074 2°51.831 14.3217 3.970256 32.470913 31.107845
2006-06-08 05:15:07 51°18.092 2°51.818 14.3209 3.96973 32.468662 31.074136
2006-06-08 05:15:12 51°18.108 2°51.806 14.3126 3.96973 32.468662 31.074136
2006-06-08 05:15:16 51°18.12 2°51.796 14.32 3.969519 32.468655 31.006717
2006-06-08 05:15:22 51°18.138 2°51.781 14.318 3.939168 32.194612 31.040426
2006-06-08 05:15:27 51°18.153 2°51.768 14.3264 3.9672 32.453897 31.006717
2006-06-08 05:15:32 51°18.168 2°51.756 14.3222 3.96857 32.469583 31.006717
2006-06-08 05:15:37 51°18.184 2°51.744 14.3232 3.968254 32.467977 30.973007
2006-06-08 05:15:42 51°18.199 2°51.733 14.3201 3.968254 32.467977 30.973007
2006-06-08 05:15:48 51°18.218 2°51.72 14.3202 3.968149 32.471486 30.939298
2006-06-08 05:15:51 51°18.228 2°51.714 14.3215 3.968044 32.471164 30.939298
2006-06-08 05:15:56 51°18.243 2°51.703 14.3286 3.968044 32.471802 30.905589
2006-06-08 05:16:02 51°18.262 2°51.691 14.3273 3.967833 32.467325 30.939298
2006-06-08 05:16:08 51°18.281 2°51.678 14.3231 3.968254 32.469893 30.871879
2006-06-08 05:16:11 51°18.29 2°51.672 14.3183 3.968254 32.469893 30.871879
2006-06-08 05:16:17 51°18.309 2°51.66 14.3223 3.96836 32.470215 30.80446
2006-06-08 05:16:22 51°18.325 2°51.649 14.3206 3.968044 32.469247 30.770751
2006-06-08 05:16:26 51°18.337 2°51.64 14.321 3.968149 32.46957 30.737042
2006-06-08 05:16:32 51°18.356 2°51.627 14.3219 3.968254 32.468615 30.737042
2006-06-08 05:16:36 51°18.369 2°51.617 14.3184 3.96836 32.469576 30.737042
2006-06-08 05:16:42 51°18.387 2°51.603 14.3215 3.96836 32.469576 30.737042
2006-06-08 05:16:47 51°18.403 2°51.591 14.3299 3.968465 32.471176 30.703332
2006-06-08 05:16:52 51°18.418 2°51.579 14.3327 3.96836 32.472131 30.635913
2006-06-08 05:16:58 51°18.437 2°51.564 14.3359 3.968676 32.475654 30.635913
2006-06-08 05:17:01 51°18.446 2°51.557 14.3413 3.968465 32.47437 30.568494
2006-06-08 05:17:07 51°18.464 2°51.542 14.3442 3.968992 32.479177 30.467366
2006-06-08 05:17:12 51°18.48 2°51.531 14.3427 3.968992 32.479177 30.467366
2006-06-08 05:17:18 51°18.499 2°51.518 14.3431 3.968992 32.480455 30.467366
2006-06-08 05:17:21 51°18.509 2°51.511 14.3448 3.968992 32.477899 30.366238
2006-06-08 05:17:26 51°18.524 2°51.5 14.348 3.968992 32.474705 30.366238
2006-06-08 05:17:32 51°18.543 2°51.487 14.3481 3.968992 32.470235 30.298819
2006-06-08 05:17:37 51°18.559 2°51.477 14.3465 3.968992 32.467043 30.2314
2006-06-08 05:17:42 51°18.575 2°51.465 14.3501 3.968992 32.467043 30.2314
2006-06-08 05:17:47 51°18.591 2°51.454 14.3553 3.969203 32.465134 30.197691
2006-06-08 05:17:52 51°18.606 2°51.443 14.3625 3.969203 32.464496 30.163982
2006-06-08 05:17:57 51°18.622 2°51.432 14.3704 3.969097 32.461621 30.130272
2006-06-08 05:18:02 51°18.638 2°51.42 14.3701 3.969203 32.462582 30.130272
2006-06-08 05:18:07 51°18.654 2°51.409 14.3734 3.969519 32.464188 30.062853
2006-06-08 05:18:12 51°18.67 2°51.397 14.3777 3.969519 32.464188 30.062853
2006-06-08 05:18:17 51°18.685 2°51.386 14.3885 3.969308 32.462266 30.029144
2006-06-08 05:18:22 51°18.701 2°51.375 14.3864 3.969308 32.459714 30.062853
2006-06-08 05:18:27 51°18.717 2°51.364 14.3859 3.969519 32.457169 29.995435
2006-06-08 05:18:32 51°18.733 2°51.353 14.3838 3.969308 32.451422 29.995435
2006-06-08 05:18:38 51°18.752 2°51.341 14.3855 3.969202 32.446636 29.995435
2006-06-08 05:18:41 51°18.762 2°51.334 14.3844 3.969202 32.446636 29.995435
2006-06-08 05:18:46 51°18.777 2°51.324 14.3805 3.969729 32.446975 29.995435
2006-06-08 05:18:52 51°18.797 2°51.311 14.3737 3.970045 32.443483 29.961725
2006-06-08 05:18:57 51°18.813 2°51.299 14.37 3.969834 32.438377 29.928016
2006-06-08 05:19:02 51°18.828 2°51.288 14.3668 3.970045 32.439023 29.928016
2006-06-08 05:19:07 51°18.844 2°51.277 14.3675 3.970256 32.440306 29.961725
2006-06-08 05:19:12 51°18.86 2°51.266 14.3624 3.970256 32.440306 29.961725
2006-06-08 05:19:17 51°18.876 2°51.255 14.3585 3.970256 32.440943 29.928016
2006-06-08 05:19:21 51°18.889 2°51.247 14.3571 3.970361 32.443814 29.894306
2006-06-08 05:19:27 51°18.908 2°51.234 14.3577 3.970572 32.448283 29.894306
2006-06-08 05:19:32 51°18.924 2°51.223 14.3582 3.970678 32.45243 29.894306
2006-06-08 05:19:37 51°18.94 2°51.212 14.3579 3.970994 32.457861 29.894306
2006-06-08 05:19:42 51°18.956 2°51.201 14.3524 3.970994 32.457861 29.894306
2006-06-08 05:19:47 51°18.972 2°51.19 14.3423 3.971099 32.461372 29.894306
2006-06-08 05:19:52 51°18.988 2°51.179 14.3448 3.971099 32.463923 29.860597
2006-06-08 05:19:57 51°19.004 2°51.168 14.3484 3.971205 32.468711 29.894306
2006-06-08 05:20:02 51°19.02 2°51.157 14.3491 3.970994 32.468066 29.928016
2006-06-08 05:20:07 51°19.036 2°51.146 14.3489 3.971099 32.470303 29.894306
2006-06-08 05:20:11 51°19.049 2°51.138 14.3509 3.971099 32.470303 29.894306
2006-06-08 05:20:17 51°19.068 2°51.126 14.3547 3.971205 32.472539 29.894306
2006-06-08 05:20:22 51°19.084 2°51.116 14.3461 3.970994 32.474447 29.894306
2006-06-08 05:20:28 51°19.104 2°51.104 14.3468 3.970467 32.472835 29.860597
2006-06-08 05:20:31 51°19.113 2°51.098 14.3446 3.970256 32.469637 29.894306
2006-06-08 05:20:38 51°19.136 2°51.083 14.3342 3.970256 32.46836 29.894306
2006-06-08 05:20:42 51°19.148 2°51.074 14.3283 3.970256 32.46836 29.894306
2006-06-08 05:20:47 51°19.164 2°51.062 14.3245 3.969729 32.463557 29.894306
2006-06-08 05:20:52 51°19.18 2°51.05 14.3194 3.969308 32.459714 29.860597
2006-06-08 05:20:57 51°19.195 2°51.038 14.314 3.968254 32.451382 29.894306
2006-06-08 05:21:02 51°19.211 2°51.025 14.3073 3.967833 32.448815 29.894306
2006-06-08 05:21:07 51°19.227 2°51.012 14.3047 3.967306 32.449115 29.928016
2006-06-08 05:21:11 51°19.239 2°51.002 14.2995 3.967306 32.449115 29.928016
2006-06-08 05:21:15 51°19.251 2°50.991 14.2899 3.967306 32.451667 29.928016
2006-06-08 05:21:22 51°19.273 2°50.973 14.2798 3.966357 32.448761 29.928016
2006-06-08 05:21:27 51°19.289 2°50.96 14.2807 3.96562 32.445862 29.961725
2006-06-08 05:21:32 51°19.305 2°50.948 14.2635 3.964566 32.441355 29.928016
2006-06-08 05:21:38 51°19.323 2°50.934 14.2511 3.963407 32.43461 29.928016
2006-06-08 05:21:42 51°19.336 2°50.924 14.2364 3.963407 32.43461 29.928016
2006-06-08 05:21:48 51°19.355 2°50.91 14.2275 3.962142 32.429455 29.928016
2006-06-08 05:21:51 51°19.365 2°50.903 14.2151 3.961194 32.426545 29.928016
2006-06-08 05:21:57 51°19.384 2°50.889 14.2091 3.960456 32.426835 29.961725
2006-06-08 05:22:02 51°19.4 2°50.878 14.2061 3.959824 32.428088 29.928016
2006-06-08 05:22:07 51°19.415 2°50.867 14.194 3.959824 32.43767 29.894306
2006-06-08 05:22:12 51°19.431 2°50.855 14.1944 3.959824 32.43767 29.894306
2006-06-08 05:22:17 51°19.447 2°50.843 14.1953 3.960246 32.454307 29.928016
2006-06-08 05:22:22 51°19.463 2°50.832 14.1791 3.960351 32.466789 29.928016
2006-06-08 05:22:27 51°19.479 2°50.82 14.1761 3.960246 32.475431 29.928016
2006-06-08 05:22:32 51°19.494 2°50.808 14.1667 3.960036 32.481834 29.894306
2006-06-08 05:22:37 51°19.511 2°50.796 14.1661 3.959614 32.488236 29.894306
2006-06-08 05:22:41 51°19.523 2°50.786 14.1562 3.959614 32.488236 29.894306
2006-06-08 05:22:46 51°19.539 2°50.775 14.1518 3.944228 32.351389 29.894306
2006-06-08 05:22:51 51°19.554 2°50.763 14.1517 3.959087 32.491113 29.894306
2006-06-08 05:22:57 51°19.573 2°50.749 14.1483 3.959087 32.498813 29.894306
2006-06-08 05:23:01 51°19.586 2°50.74 14.1384 3.959088 32.50459 29.894306
2006-06-08 05:23:06 51°19.602 2°50.729 14.1385 3.959088 32.50459 29.894306
2006-06-08 05:23:11 51°19.617 2°50.717 14.1382 3.959193 32.510692 29.894306
2006-06-08 05:23:17 51°19.637 2°50.703 14.1371 3.959931 32.523228 29.860597
2006-06-08 05:23:22 51°19.652 2°50.692 14.1213 3.960247 32.532551 29.860597
2006-06-08 05:23:27 51°19.668 2°50.681 14.1166 3.960353 32.538018 29.860597
2006-06-08 05:23:32 51°19.683 2°50.669 14.1111 3.960879 32.546061 29.860597
2006-06-08 05:23:38 51°19.702 2°50.655 14.1042 3.961301 32.555715 29.826888
2006-06-08 05:23:41 51°19.711 2°50.647 14.106 3.961301 32.555715 29.826888
2006-06-08 05:23:47 51°19.73 2°50.633 14.0981 3.96225 32.566981 29.826888
2006-06-08 05:23:52 51°19.746 2°50.621 14.0916 3.963831 32.587266 29.793178
2006-06-08 05:23:57 51°19.762 2°50.609 14.0981 3.965517 32.607236 29.793178
2006-06-08 05:24:02 51°19.777 2°50.598 14.085 3.967098 32.626891 29.793178
2006-06-08 05:24:06 51°19.79 2°50.589 14.0842 3.968573 32.646234 29.759469
2006-06-08 05:24:11 51°19.806 2°50.577 14.0894 3.968573 32.646234 29.759469
2006-06-08 05:24:16 51°19.822 2°50.566 14.0827 3.970576 32.671065 29.759469
2006-06-08 05:24:22 51°19.841 2°50.552 14.0793 3.972156 32.689451 29.759469
2006-06-08 05:24:27 51°19.857 2°50.541 14.0752 3.973948 32.711719 29.725759
2006-06-08 05:24:32 51°19.873 2°50.529 14.0799 3.97574 32.730108 29.725759
2006-06-08 05:24:36 51°19.886 2°50.52 14.0764 3.97574 32.730108 29.725759
2006-06-08 05:24:42 51°19.905 2°50.507 14.0862 3.978375 32.758186 29.69205
2006-06-08 05:24:47 51°19.921 2°50.495 14.0773 3.980798 32.782389 29.69205
2006-06-08 05:24:52 51°19.937 2°50.484 14.0694 3.984276 32.816928 29.69205
2006-06-08 05:24:55 51°19.946 2°50.477 14.0732 3.987122 32.845667 29.69205
2006-06-08 05:25:02 51°19.969 2°50.461 14.0729 3.989651 32.872161 29.725759
2006-06-08 05:25:07 51°19.985 2°50.45 14.0755 3.989651 32.872161 29.725759
2006-06-08 05:25:12 51°20.001 2°50.438 14.0791 3.991021 32.886053 29.658341
2006-06-08 05:25:18 51°20.02 2°50.424 14.0601 3.993024 32.90315 29.658341
2006-06-08 05:25:22 51°20.032 2°50.414 14.0498 3.994921 32.920584 29.624631
2006-06-08 05:25:27 51°20.048 2°50.401 14.0429 3.995975 32.934186 29.624631
2006-06-08 05:25:32 51°20.064 2°50.388 14.0332 3.996607 32.941957 29.624631
2006-06-08 05:25:37 51°20.079 2°50.375 14.0411 3.99745 32.950361 29.590922
2006-06-08 05:25:42 51°20.095 2°50.363 14.0482 3.99745 32.950361 29.590922
2006-06-08 05:25:47 51°20.111 2°50.351 14.0451 3.997977 32.955859 29.590922
2006-06-08 05:25:52 51°20.127 2°50.339 14.0495 3.99861 32.964286 29.590922
2006-06-08 05:25:58 51°20.146 2°50.324 14.0492 3.999453 32.979884 29.557212
2006-06-08 05:26:02 51°20.159 2°50.315 14.046 3.99998 32.990619 29.590922
2006-06-08 05:26:07 51°20.175 2°50.304 14.0605 4.000401 33.001043 29.557212
2006-06-08 05:26:12 51°20.191 2°50.292 14.0657 4.000401 33.001043 29.557212
2006-06-08 05:26:16 51°20.204 2°50.283 14.0679 3.99998 32.998474 29.557212
2006-06-08 05:26:22 51°20.223 2°50.269 14.0778 3.999769 32.995225 29.523503
2006-06-08 05:26:27 51°20.239 2°50.258 14.0837 3.999453 32.989698 29.523503
2006-06-08 05:26:32 51°20.255 2°50.246 14.0861 3.999242 32.988413 29.489794
2006-06-08 05:26:36 51°20.267 2°50.237 14.0887 3.999242 32.988413 29.489794
2006-06-08 05:26:41 51°20.283 2°50.225 14.0885 3.998821 32.983881 29.489794
2006-06-08 05:26:47 51°20.302 2°50.211 14.0921 3.998399 32.975423 29.456084
2006-06-08 05:26:52 51°20.318 2°50.2 14.0848 3.997767 32.96503 29.456084
2006-06-08 05:26:57 51°20.334 2°50.187 14.0848 3.997029 32.951711 29.422375
2006-06-08 05:27:02 51°20.35 2°50.176 14.0808 3.995975 32.936797 29.422375
2006-06-08 05:27:07 51°20.366 2°50.164 14.0823 3.995026 32.922857 29.388665
2006-06-08 05:27:12 51°20.382 2°50.152 14.0932 3.995026 32.922857 29.388665
2006-06-08 05:27:17 51°20.398 2°50.141 14.0903 3.994183 32.912499 29.388665
2006-06-08 05:27:22 51°20.414 2°50.13 14.0923 3.993024 32.899238 29.422375
2006-06-08 05:27:27 51°20.43 2°50.119 14.0962 3.992497 32.8957 29.422375
2006-06-08 05:27:32 51°20.446 2°50.108 14.0977 3.99197 32.890858 29.422375
2006-06-08 05:27:37 51°20.463 2°50.098 14.0923 3.991443 32.887972 29.388665
2006-06-08 05:27:42 51°20.478 2°50.086 14.0896 3.991443 32.887972 29.388665
2006-06-08 05:27:46 51°20.491 2°50.078 14.0849 3.991021 32.883446 29.388665
2006-06-08 05:27:52 51°20.511 2°50.064 14.0838 3.990916 32.881175 29.422375
2006-06-08 05:27:55 51°20.52 2°50.057 14.0882 3.990494 32.875999 29.422375
2006-06-08 05:28:02 51°20.543 2°50.041 14.0798 3.990494 32.873393 29.422375
2006-06-08 05:28:07 51°20.559 2°50.029 14.0775 3.9906 32.87371 29.388665
2006-06-08 05:28:12 51°20.574 2°50.017 14.0775 3.9906 32.87371 29.388665
2006-06-08 05:28:15 51°20.584 2°50.01 14.074 3.991232 32.88017 29.388665
2006-06-08 05:28:22 51°20.607 2°49.994 14.0769 3.991759 32.886966 29.422375
2006-06-08 05:28:27 51°20.623 2°49.983 14.0708 3.992075 32.892478 29.388665
2006-06-08 05:28:31 51°20.636 2°49.974 14.0598 3.992497 32.897004 29.388665
2006-06-08 05:28:38 51°20.658 2°49.957 14.062 3.992708 32.900245 29.422375
2006-06-08 05:28:42 51°20.671 2°49.947 14.0637 3.992708 32.900245 29.422375
2006-06-08 05:28:48 51°20.69 2°49.934 14.0589 3.993024 32.905107 29.388665
2006-06-08 05:28:52 51°20.703 2°49.924 14.0591 3.99334 32.910621 29.422375
2006-06-08 05:28:56 51°20.717 2°49.915 14.055 3.993972 32.917738 29.422375
2006-06-08 05:29:03 51°20.74 2°49.898 14.0515 3.994394 32.925529 29.422375
2006-06-08 05:29:08 51°20.756 2°49.886 14.0479 3.995132 32.935576 29.388665
2006-06-08 05:29:12 51°20.768 2°49.876 14.05 3.995132 32.935576 29.388665
2006-06-08 05:29:17 51°20.784 2°49.863 14.0504 3.995237 32.939157 29.388665
2006-06-08 05:29:22 51°20.8 2°49.85 14.0564 3.995764 32.945962 29.388665
2006-06-08 05:29:27 51°20.816 2°49.837 14.0473 3.996396 32.953084 29.354956
2006-06-08 05:29:32 51°20.831 2°49.824 14.0476 3.996607 32.957637 29.354956
2006-06-08 05:29:35 51°20.841 2°49.816 14.045 3.997134 32.965099 29.354956
2006-06-08 05:29:42 51°20.863 2°49.798 14.0426 3.997134 32.965099 29.354956
2006-06-08 05:29:47 51°20.879 2°49.785 14.0199 3.996818 32.96546 29.321247
2006-06-08 05:29:51 51°20.892 2°49.775 14.0126 3.996502 32.962552 29.354956
2006-06-08 05:29:56 51°20.908 2°49.764 14.0061 3.996397 32.960275 29.354956
2006-06-08 05:30:02 51°20.928 2°49.75 13.9927 3.995975 32.957705 29.354956
2006-06-08 05:30:07 51°20.944 2°49.739 13.9878 3.995975 32.957705 29.354956
2006-06-08 05:30:12 51°20.961 2°49.728 13.9754 3.995237 32.951572 29.354956
2006-06-08 05:30:18 51°20.98 2°49.715 13.9666 3.994921 32.951933 29.354956
2006-06-08 05:30:22 51°20.993 2°49.706 13.951 3.994605 32.954255 29.354956
2006-06-08 05:30:27 51°21.009 2°49.695 13.9324 3.993868 32.957932 29.321247
2006-06-08 05:30:32 51°21.025 2°49.684 13.9235 3.992919 32.960326 29.321247
2006-06-08 05:30:37 51°21.042 2°49.673 13.9127 3.991971 32.958794 29.287537
2006-06-08 05:30:42 51°21.058 2°49.663 13.9062 3.991971 32.958794 29.287537
2006-06-08 05:30:48 51°21.077 2°49.65 13.902 3.991339 32.960829 29.287537
2006-06-08 05:30:52 51°21.09 2°49.641 13.8926 3.99039 32.962573 29.287537
2006-06-08 05:30:58 51°21.11 2°49.628 13.8855 3.989231 32.964999 29.287537
2006-06-08 05:31:02 51°21.123 2°49.619 13.8888 3.988177 32.967743 29.253828
2006-06-08 05:31:07 51°21.139 2°49.608 13.8783 3.987229 32.97015 29.287537
2006-06-08 05:31:12 51°21.156 2°49.598 13.8831 3.987229 32.97015 29.287537
2006-06-08 05:31:17 51°21.172 2°49.587 13.8833 3.987019 32.978708 29.253828
2006-06-08 05:31:22 51°21.189 2°49.577 13.8782 3.987756 32.995368 29.287537
2006-06-08 05:31:27 51°21.205 2°49.567 13.8714 3.988705 33.012668 29.253828
2006-06-08 05:31:32 51°21.222 2°49.557 13.8736 3.989654 33.028004 29.220118
2006-06-08 05:31:36 51°21.235 2°49.549 13.87 3.990075 33.036504 29.220118
2006-06-08 05:31:41 51°21.251 2°49.538 13.8696 3.990075 33.036504 29.220118
2006-06-08 05:31:47 51°21.271 2°49.525 13.8669 3.990286 33.043061 29.186409
2006-06-08 05:31:52 51°21.287 2°49.514 13.8542 3.98997 33.040799 29.186409
2006-06-08 05:31:57 51°21.304 2°49.503 13.8505 3.990075 33.042431 29.1527
2006-06-08 05:32:02 51°21.32 2°49.492 13.8399 3.990286 33.049649 29.1527
2006-06-08 05:32:06 51°21.333 2°49.483 13.8346 3.989865 33.047732 29.1527
2006-06-08 05:32:12 51°21.353 2°49.47 13.8268 3.989865 33.047732 29.1527
2006-06-08 05:32:16 51°21.366 2°49.461 13.831 3.989338 33.046818 29.1527
2006-06-08 05:32:22 51°21.385 2°49.449 13.8137 3.989654 33.052375 29.1527
2006-06-08 05:32:27 51°21.402 2°49.438 13.8061 3.990181 33.06186 29.1527
2006-06-08 05:32:32 51°21.418 2°49.428 13.8006 3.990919 33.074616 29.11899
2006-06-08 05:32:38 51°21.438 2°49.415 13.7869 3.991762 33.089671 29.11899
2006-06-08 05:32:42 51°21.45 2°49.407 13.7809 3.991762 33.089671 29.11899
2006-06-08 05:32:47 51°21.467 2°49.395 13.7739 3.992711 33.105048 29.11899
2006-06-08 05:32:52 51°21.483 2°49.385 13.7668 3.993448 33.11782 29.085281
2006-06-08 05:32:56 51°21.496 2°49.376 13.7636 3.994292 33.132234 29.11899
2006-06-08 05:33:02 51°21.516 2°49.363 13.7606 3.99503 33.147004 29.11899
2006-06-08 05:33:08 51°21.535 2°49.35 13.7478 3.995662 33.161468 29.085281
2006-06-08 05:33:12 51°21.548 2°49.341 13.7399 3.995662 33.161468 29.085281
2006-06-08 05:33:16 51°21.561 2°49.332 13.7416 3.996294 33.17594 29.085281
2006-06-08 05:33:22 51°21.581 2°49.319 13.7284 3.997243 33.192686 29.085281
2006-06-08 05:33:27 51°21.597 2°49.308 13.7274 3.999667 33.222446 29.085281
2006-06-08 05:33:32 51°21.613 2°49.297 13.7234 4.000827 33.239836 29.051571
2006-06-08 05:33:36 51°21.625 2°49.288 13.7237 4.001248 33.250395 29.017862
2006-06-08 05:33:42 51°21.645 2°49.275 13.7272 4.001248 33.250395 29.017862
2006-06-08 05:33:47 51°21.661 2°49.264 13.7278 4.001143 33.255407 29.017862
2006-06-08 05:33:52 51°21.677 2°49.253 13.7296 4.000827 33.259132 28.984153
2006-06-08 05:33:56 51°21.69 2°49.245 13.7205 4.00167 33.274278 29.017862
2006-06-08 05:34:02 51°21.709 2°49.232 13.7212 4.003778 33.29783 29.017862
2006-06-08 05:34:07 51°21.726 2°49.221 13.7154 4.006202 33.324325 29.017862
2006-06-08 05:34:12 51°21.741 2°49.21 13.7162 4.006202 33.324325 29.017862
2006-06-08 05:34:16 51°21.754 2°49.202 13.7138 4.008099 33.343933 28.984153
2006-06-08 05:34:22 51°21.774 2°49.187 13.7142 4.010207 33.364165 28.984153
2006-06-08 05:34:26 51°21.786 2°49.178 13.7183 4.011893 33.37848 28.984153
2006-06-08 05:34:32 51°21.806 2°49.165 13.7217 4.014106 33.401032 28.984153
2006-06-08 05:34:37 51°21.822 2°49.154 13.7202 4.015793 33.422043 28.950443
2006-06-08 05:34:42 51°21.838 2°49.144 13.7195 4.015793 33.422043 28.950443
2006-06-08 05:34:46 51°21.852 2°49.136 13.7184 4.016952 33.434148 28.916734
2006-06-08 05:34:51 51°21.868 2°49.126 13.7199 4.017901 33.444968 28.883024
2006-06-08 05:34:56 51°21.884 2°49.117 13.7249 4.018428 33.451203 28.849315
2006-06-08 05:35:02 51°21.904 2°49.106 13.7253 4.018955 33.454086 28.815606
2006-06-08 05:35:07 51°21.921 2°49.097 13.7263 4.019376 33.457331 28.815606
2006-06-08 05:35:12 51°21.937 2°49.088 13.7266 4.019376 33.457331 28.815606
2006-06-08 05:35:18 51°21.957 2°49.076 13.721 4.02043 33.466449 28.815606
2006-06-08 05:35:22 51°21.97 2°49.068 13.7213 4.020641 33.469078 28.781896
2006-06-08 05:35:27 51°21.986 2°49.059 13.7227 4.020641 33.469078 28.748187
2006-06-08 05:35:32 51°22.003 2°49.049 13.7277 4.020746 33.468044 28.748187
2006-06-08 05:35:37 51°22.019 2°49.039 13.7225 4.020746 33.468044 28.748187
2006-06-08 05:35:42 51°22.036 2°49.029 13.725 4.020957 33.46799 28.714477
2006-06-08 05:35:47 51°22.052 2°49.019 13.7223 4.021273 33.470256 28.714477
2006-06-08 05:35:52 51°22.068 2°49.008 13.7194 4.021695 33.474842 28.680768
2006-06-08 05:35:56 51°22.081 2°49 13.7209 4.0218 33.475821 28.680768
2006-06-08 05:36:02 51°22.101 2°48.988 13.7243 4.022327 33.481386 28.647059
2006-06-08 05:36:08 51°22.121 2°48.975 13.7224 4.022433 33.481023 28.647059
2006-06-08 05:36:12 51°22.134 2°48.967 13.7245 4.022433 33.481023 28.647059
2006-06-08 05:36:16 51°22.147 2°48.959 13.716 4.022538 33.482673 28.680768
2006-06-08 05:36:22 51°22.167 2°48.947 13.7219 4.02296 33.48793 28.57964
2006-06-08 05:36:28 51°22.186 2°48.936 13.7209 4.02317 33.49123 28.57964
2006-06-08 05:36:32 51°22.2 2°48.929 13.7226 4.023592 33.495146 28.57964
2006-06-08 05:36:37 51°22.216 2°48.92 13.7211 4.023908 33.496741 28.57964
2006-06-08 05:36:42 51°22.233 2°48.911 13.73 4.023908 33.496741 28.57964
2006-06-08 05:36:47 51°22.249 2°48.902 13.7245 4.024119 33.49937 28.54593
2006-06-08 05:36:51 51°22.262 2°48.895 13.7221 4.024751 33.506587 28.54593
2006-06-08 05:36:56 51°22.279 2°48.885 13.7228 4.024857 33.508237 28.54593
2006-06-08 05:37:02 51°22.298 2°48.874 13.724 4.0257 33.51607 28.512221
2006-06-08 05:37:07 51°22.315 2°48.865 13.7238 4.026332 33.521945 28.512221
2006-06-08 05:37:12 51°22.331 2°48.855 13.7243 4.026332 33.521945 28.512221
2006-06-08 05:37:16 51°22.344 2°48.847 13.7207 4.027491 33.531372 28.54593
2006-06-08 05:37:22 51°22.363 2°48.834 13.7223 4.028335 33.537189 28.54593
2006-06-08 05:37:27 51°22.379 2°48.824 13.7255 4.029389 33.54698 28.54593
2006-06-08 05:37:31 51°22.392 2°48.816 13.7239 4.030021 33.553528 28.54593
2006-06-08 05:37:36 51°22.408 2°48.806 13.7303 4.03118 33.5643 28.54593
2006-06-08 05:37:42 51°22.428 2°48.795 13.7388 4.03118 33.5643 28.54593
2006-06-08 05:37:47 51°22.444 2°48.786 13.7313 4.032023 33.572134 28.54593
2006-06-08 05:37:52 51°22.46 2°48.777 13.727 4.032972 33.582293 28.512221
2006-06-08 05:37:57 51°22.476 2°48.768 13.7234 4.03371 33.589822 28.512221
2006-06-08 05:38:02 51°22.492 2°48.758 13.7272 4.034131 33.591721 28.478512
2006-06-08 05:38:07 51°22.508 2°48.749 13.726 4.034764 33.597597 28.478512
2006-06-08 05:38:12 51°22.524 2°48.74 13.7278 4.034764 33.597597 28.478512
2006-06-08 05:38:17 51°22.54 2°48.73 13.7267 4.034974 33.596863 28.444802
2006-06-08 05:38:22 51°22.556 2°48.721 13.7241 4.035396 33.598761 28.444802
2006-06-08 05:38:27 51°22.572 2°48.711 13.7246 4.036134 33.606963 28.377383
2006-06-08 05:38:32 51°22.588 2°48.702 13.722 4.036134 33.607636 28.411093
2006-06-08 05:38:37 51°22.605 2°48.693 13.7222 4.036555 33.61088 28.377383
2006-06-08 05:38:42 51°22.62 2°48.684 13.7252 4.036555 33.61088 28.377383
2006-06-08 05:38:48 51°22.639 2°48.672 13.7191 4.036661 33.612533 28.411093
2006-06-08 05:38:52 51°22.652 2°48.665 13.7235 4.036766 33.614186 28.343674
2006-06-08 05:38:58 51°22.671 2°48.654 13.7179 4.037082 33.618471 28.343674
2006-06-08 05:39:02 51°22.684 2°48.646 13.719 4.037188 33.620798 28.309965
2006-06-08 05:39:07 51°22.7 2°48.637 13.7181 4.037188 33.620798 28.309965
2006-06-08 05:39:12 51°22.716 2°48.627 13.7174 4.036872 33.619207 28.309965
2006-06-08 05:39:17 51°22.732 2°48.618 13.7196 4.037082 33.619819 28.276255
2006-06-08 05:39:22 51°22.748 2°48.609 13.7193 4.037082 33.621166 28.276255
2006-06-08 05:39:26 51°22.761 2°48.601 13.7212 4.036872 33.619881 28.242546
2006-06-08 05:39:32 51°22.78 2°48.589 13.7159 4.037188 33.624167 28.242546
2006-06-08 05:39:36 51°22.792 2°48.581 13.7159 4.036766 33.620249 28.242546
2006-06-08 05:39:42 51°22.811 2°48.568 13.7158 4.036766 33.620249 28.242546
2006-06-08 05:39:47 51°22.827 2°48.558 13.7162 4.036766 33.62227 28.242546
2006-06-08 05:39:52 51°22.842 2°48.547 13.7165 4.036766 33.62227 28.175127
2006-06-08 05:39:58 51°22.862 2°48.535 13.7198 4.03645 33.618657 28.208836
2006-06-08 05:40:02 51°22.874 2°48.527 13.7146 4.036345 33.618352 28.175127
2006-06-08 05:40:07 51°22.89 2°48.518 13.7165 4.036345 33.619699 28.175127
2006-06-08 05:40:12 51°22.906 2°48.509 13.7104 4.036345 33.619699 28.175127
2006-06-08 05:40:16 51°22.919 2°48.501 13.7171 4.03645 33.620679 28.141418
2006-06-08 05:40:22 51°22.938 2°48.491 13.7201 4.036766 33.623618 28.141418
2006-06-08 05:40:27 51°22.954 2°48.481 13.7127 4.036766 33.622944 28.141418
2006-06-08 05:40:32 51°22.97 2°48.472 13.7169 4.036977 33.62423 28.107708
2006-06-08 05:40:36 51°22.983 2°48.464 13.7111 4.037188 33.628885 28.141418
2006-06-08 05:40:42 51°23.003 2°48.452 13.7039 4.037188 33.628885 28.141418
2006-06-08 05:40:47 51°23.018 2°48.442 13.7052 4.037188 33.628885 28.107708
2006-06-08 05:40:52 51°23.034 2°48.432 13.706 4.037504 33.631824 28.073999
2006-06-08 05:40:56 51°23.047 2°48.423 13.7032 4.037715 33.63311 28.107708
2006-06-08 05:41:02 51°23.066 2°48.41 13.7048 4.037609 33.632804 28.073999
2006-06-08 05:41:08 51°23.085 2°48.397 13.7067 4.037609 33.632804 28.073999
2006-06-08 05:41:12 51°23.097 2°48.388 13.7057 4.037609 33.632804 28.073999
2006-06-08 05:41:17 51°23.113 2°48.378 13.7089 4.037399 33.63489 28.073999
2006-06-08 05:41:22 51°23.129 2°48.368 13.7057 4.03761 33.638198 28.040289
2006-06-08 05:41:26 51°23.142 2°48.36 13.7139 4.037083 33.635322 28.040289
2006-06-08 05:41:31 51°23.158 2°48.35 13.7055 4.037188 33.637651 28.040289
2006-06-08 05:41:36 51°23.174 2°48.341 13.7021 4.036661 33.63275 27.972871
2006-06-08 05:41:42 51°23.194 2°48.329 13.7065 4.036661 33.63275 27.972871
2006-06-08 05:41:47 51°23.21 2°48.319 13.7069 4.036556 33.630422 27.972871
2006-06-08 05:41:52 51°23.226 2°48.31 13.7064 4.036345 33.628462 27.939161
2006-06-08 05:41:56 51°23.239 2°48.302 13.7106 4.035818 33.623562 27.905452
2006-06-08 05:42:02 51°23.258 2°48.291 13.7064 4.035607 33.61958 27.871742
2006-06-08 05:42:07 51°23.274 2°48.281 13.7039 4.035712 33.62056 27.905452
2006-06-08 05:42:12 51°23.29 2°48.27 13.6983 4.035712 33.62056 27.905452
2006-06-08 05:42:15 51°23.3 2°48.264 13.7013 4.03508 33.616029 27.838033
2006-06-08 05:42:22 51°23.322 2°48.248 13.6965 4.034659 33.613457 27.838033
2006-06-08 05:42:27 51°23.338 2°48.237 13.7 4.034132 33.608558 27.871742
2006-06-08 05:42:32 51°23.354 2°48.226 13.7038 4.033815 33.604271 27.804324
2006-06-08 05:42:36 51°23.367 2°48.218 13.7043 4.033605 33.603658 27.804324
2006-06-08 05:42:42 51°23.386 2°48.205 13.699 4.033605 33.603658 27.804324
2006-06-08 05:42:48 51°23.405 2°48.193 13.6981 4.033499 33.604026 27.804324
2006-06-08 05:42:52 51°23.418 2°48.186 13.696 4.033394 33.605741 27.804324
2006-06-08 05:42:57 51°23.435 2°48.176 13.6945 4.033499 33.607395 27.770614
2006-06-08 05:43:02 51°23.451 2°48.166 13.6893 4.033288 33.606109 27.804324
2006-06-08 05:43:07 51°23.467 2°48.156 13.6869 4.033499 33.606721 27.770614
2006-06-08 05:43:12 51°23.483 2°48.147 13.6874 4.033499 33.606721 27.770614
2006-06-08 05:43:17 51°23.5 2°48.137 13.6886 4.033499 33.606047 27.770614
2006-06-08 05:43:22 51°23.516 2°48.128 13.681 4.03371 33.609355 27.703195
2006-06-08 05:43:27 51°23.532 2°48.117 13.6891 4.033605 33.611071 27.736905
2006-06-08 05:43:32 51°23.548 2°48.108 13.6806 4.034132 33.61732 27.736905
2006-06-08 05:43:36 51°23.561 2°48.1 13.6778 4.034553 33.624613 27.736905
2006-06-08 05:43:42 51°23.581 2°48.087 13.6756 4.034553 33.624613 27.736905
2006-06-08 05:43:47 51°23.597 2°48.078 13.6699 4.035291 33.632824 27.770614
2006-06-08 05:43:52 51°23.613 2°48.067 13.6746 4.035713 33.638095 27.736905
2006-06-08 05:43:55 51°23.622 2°48.061 13.6793 4.036134 33.644716 27.703195
2006-06-08 05:44:03 51°23.649 2°48.044 13.6725 4.036767 33.651949 27.669486
2006-06-08 05:44:07 51°23.662 2°48.036 13.6705 4.036872 33.65428 27.669486
2006-06-08 05:44:12 51°23.678 2°48.027 13.6646 4.036872 33.65428 27.669486
2006-06-08 05:44:16 51°23.691 2°48.019 13.6618 4.037083 33.658943 27.635777
2006-06-08 05:44:22 51°23.711 2°48.008 13.6676 4.037399 33.664587 27.635777
2006-06-08 05:44:27 51°23.727 2°47.999 13.6607 4.037505 33.665568 27.602067
2006-06-08 05:44:32 51°23.743 2°47.989 13.6631 4.037821 33.667835 27.602067
2006-06-08 05:44:36 51°23.757 2°47.982 13.6602 4.038137 33.672128 27.568358
2006-06-08 05:44:42 51°23.776 2°47.971 13.6571 4.038137 33.672128 27.568358
2006-06-08 05:44:48 51°23.796 2°47.96 13.6579 4.038242 33.675137 27.568358
2006-06-08 05:44:51 51°23.806 2°47.953 13.6558 4.038137 33.678887 27.534648
2006-06-08 05:44:57 51°23.825 2°47.941 13.6542 4.038032 33.677906 27.500939
2006-06-08 05:45:02 51°23.841 2°47.93 13.6564 4.038032 33.679935 27.500939
2006-06-08 05:45:08 51°23.86 2°47.918 13.661 4.038348 33.684907 27.46723
2006-06-08 05:45:12 51°23.873 2°47.909 13.6601 4.038348 33.684907 27.46723
2006-06-08 05:45:16 51°23.886 2°47.9 13.6637 4.038032 33.683992 27.46723
2006-06-08 05:45:22 51°23.906 2°47.887 13.6625 4.038032 33.686021 27.46723
2006-06-08 05:45:27 51°23.922 2°47.876 13.6606 4.038032 33.686697 27.43352
2006-06-08 05:45:32 51°23.939 2°47.867 13.6551 4.037716 33.685106 27.399811
2006-06-08 05:45:35 51°23.949 2°47.861 13.6553 4.037083 33.679218 27.399811
2006-06-08 05:45:42 51°23.972 2°47.848 13.6532 4.037083 33.679218 27.399811
2006-06-08 05:45:47 51°23.988 2°47.839 13.657 4.036978 33.674856 27.366101
2006-06-08 05:45:51 51°24.001 2°47.832 13.653 4.036767 33.671542 27.332392
2006-06-08 05:45:56 51°24.018 2°47.823 13.6555 4.036767 33.67019 27.298683
2006-06-08 05:46:02 51°24.038 2°47.811 13.6466 4.036662 33.670561 27.264973
2006-06-08 05:46:07 51°24.054 2°47.802 13.6481 4.036767 33.67357 27.264973
2006-06-08 05:46:12 51°24.071 2°47.792 13.6462 4.036767 33.67357 27.264973
2006-06-08 05:46:18 51°24.09 2°47.781 13.6467 4.037399 33.68081 27.264973
2006-06-08 05:46:22 51°24.104 2°47.773 13.6513 4.037399 33.681486 27.298683
2006-06-08 05:46:27 51°24.12 2°47.763 13.6509 4.038137 33.688355 27.264973
2006-06-08 05:46:32 51°24.137 2°47.754 13.6563 4.038559 33.693633 27.231264
2006-06-08 05:46:38 51°24.156 2°47.742 13.644 4.03877 33.69898 27.231264
2006-06-08 05:46:42 51°24.17 2°47.735 13.6445 4.03877 33.69898 27.231264
2006-06-08 05:46:47 51°24.186 2°47.725 13.653 4.039191 33.70426 27.197554
2006-06-08 05:46:52 51°24.203 2°47.716 13.6507 4.039507 33.708558 27.163845
2006-06-08 05:46:57 51°24.219 2°47.707 13.6422 4.039507 33.707881 27.163845
2006-06-08 05:47:02 51°24.236 2°47.698 13.6361 4.039824 33.708795 27.163845
2006-06-08 05:47:07 51°24.253 2°47.689 13.6375 4.040351 33.713702 27.130136
2006-06-08 05:47:12 51°24.269 2°47.681 13.6338 4.040351 33.713702 27.130136
2006-06-08 05:47:17 51°24.286 2°47.671 13.6355 4.04014 33.715125 27.096426
2006-06-08 05:47:22 51°24.303 2°47.663 13.632 4.040034 33.712789 27.096426
2006-06-08 05:47:27 51°24.32 2°47.653 13.6329 4.040456 33.716715 27.062717
2006-06-08 05:47:32 51°24.336 2°47.644 13.6379 4.041088 33.725315 27.062717
2006-06-08 05:47:38 51°24.356 2°47.634 13.633 4.041299 33.730666 27.029007
2006-06-08 05:47:42 51°24.369 2°47.627 13.6278 4.041299 33.730666 27.029007
2006-06-08 05:47:47 51°24.386 2°47.618 13.6312 4.041194 33.733072 27.029007
2006-06-08 05:47:52 51°24.403 2°47.61 13.6263 4.04151 33.736696 26.995298
2006-06-08 05:47:55 51°24.413 2°47.604 13.6255 4.040562 33.729892 26.995298
2006-06-08 05:48:03 51°24.44 2°47.589 13.6246 4.040035 33.724982 26.927879
2006-06-08 05:48:07 51°24.453 2°47.582 13.6127 4.039508 33.719395 26.89417
2006-06-08 05:48:11 51°24.466 2°47.574 13.6071 4.039508 33.719395 26.89417
2006-06-08 05:48:16 51°24.483 2°47.563 13.5961 4.039191 33.716449 26.89417
2006-06-08 05:48:22 51°24.502 2°47.551 13.584 4.03877 33.715231 26.89417
2006-06-08 05:48:28 51°24.522 2°47.538 13.5827 4.038454 33.714318 26.89417
2006-06-08 05:48:32 51°24.535 2°47.53 13.5757 4.038032 33.712422 26.826751
2006-06-08 05:48:37 51°24.551 2°47.519 13.5732 4.037927 33.713473 26.793042
2006-06-08 05:48:42 51°24.568 2°47.51 13.5653 4.037927 33.713473 26.793042
2006-06-08 05:48:47 51°24.585 2°47.5 13.5662 4.038138 33.720181 26.826751
2006-06-08 05:48:52 51°24.601 2°47.491 13.5564 4.03877 33.733534 26.826751
2006-06-08 05:48:58 51°24.621 2°47.48 13.5639 4.039719 33.753915 26.826751
2006-06-08 05:49:02 51°24.634 2°47.473 13.5578 4.041405 33.776436 26.759332
2006-06-08 05:49:07 51°24.651 2°47.464 13.5507 4.043092 33.798288 26.793042
2006-06-08 05:49:11 51°24.664 2°47.457 13.5482 4.043092 33.798288 26.793042
2006-06-08 05:49:17 51°24.683 2°47.445 13.5505 4.044884 33.820451 26.725623
2006-06-08 05:49:22 51°24.699 2°47.435 13.5471 4.046886 33.84391 26.725623
2006-06-08 05:49:28 51°24.719 2°47.423 13.547 4.048467 33.862077 26.691913
2006-06-08 05:49:31 51°24.729 2°47.417 13.5415 4.050259 33.880853 26.658204
2006-06-08 05:49:37 51°24.749 2°47.406 13.531 4.051313 33.894108 26.590785
2006-06-08 05:49:42 51°24.765 2°47.397 13.5284 4.051313 33.894108 26.590785
2006-06-08 05:49:47 51°24.781 2°47.387 13.5342 4.051629 33.899109 26.557076
2006-06-08 05:49:52 51°24.798 2°47.377 13.5251 4.053315 33.918275 26.523366
2006-06-08 05:49:56 51°24.811 2°47.369 13.5349 4.054053 33.926534 26.455947
2006-06-08 05:50:02 51°24.83 2°47.358 13.5322 4.054475 33.93389 26.388529
2006-06-08 05:50:07 51°24.846 2°47.349 13.5198 4.055213 33.943519 26.354819
2006-06-08 05:50:12 51°24.863 2°47.339 13.515 4.055213 33.943519 26.354819
2006-06-08 05:50:18 51°24.883 2°47.328 13.5099 4.055634 33.953615 26.32111
2006-06-08 05:50:22 51°24.896 2°47.321 13.5008 4.056161 33.961278 26.2874
2006-06-08 05:50:27 51°24.912 2°47.312 13.502 4.056583 33.968642 26.253691
2006-06-08 05:50:32 51°24.928 2°47.303 13.4989 4.057005 33.973953 26.219982
2006-06-08 05:50:36 51°24.941 2°47.296 13.4941 4.057532 33.97888 26.186272
2006-06-08 05:50:42 51°24.96 2°47.285 13.4923 4.057532 33.97888 26.186272
2006-06-08 05:50:47 51°24.977 2°47.277 13.4901 4.059007 33.996102 26.085144
2006-06-08 05:50:52 51°24.993 2°47.268 13.485 4.060588 34.018429 26.051435
2006-06-08 05:50:55 51°25.003 2°47.264 13.479 4.062696 34.042265 26.017725
2006-06-08 05:51:03 51°25.029 2°47.25 13.4746 4.063856 34.05792 25.950306
2006-06-08 05:51:07 51°25.042 2°47.243 13.4711 4.065437 34.076151 25.950306
2006-06-08 05:51:11 51°25.055 2°47.236 13.475 4.065437 34.076151 25.950306
2006-06-08 05:51:18 51°25.078 2°47.223 13.4744 4.066702 34.092115 25.882888
2006-06-08 05:51:22 51°25.091 2°47.216 13.474 4.067756 34.104733 25.815469
2006-06-08 05:51:27 51°25.107 2°47.206 13.478 4.068599 34.114692 25.815469
2006-06-08 05:51:32 51°25.123 2°47.197 13.4779 4.069126 34.124447 25.781759
2006-06-08 05:51:36 51°25.136 2°47.19 13.4658 4.069653 34.134893 25.74805
2006-06-08 05:51:42 51°25.155 2°47.18 13.4636 4.069653 34.134893 25.74805
2006-06-08 05:51:47 51°25.171 2°47.171 13.4685 4.070285 34.144263 25.714341
2006-06-08 05:51:52 51°25.188 2°47.162 13.4714 4.070391 34.145939 25.646922
2006-06-08 05:51:57 51°25.204 2°47.154 13.4716 4.070602 34.148604 25.613212
2006-06-08 05:52:02 51°25.22 2°47.146 13.4674 4.070707 34.148901 25.613212
2006-06-08 05:52:08 51°25.24 2°47.137 13.464 4.070812 34.150578 25.545794
2006-06-08 05:52:12 51°25.253 2°47.13 13.4654 4.070812 34.150578 25.545794
2006-06-08 05:52:16 51°25.266 2°47.123 13.4597 4.071023 34.156691 25.579503
2006-06-08 05:52:22 51°25.285 2°47.111 13.4567 4.071445 34.162711 25.512084
2006-06-08 05:52:28 51°25.305 2°47.1 13.4572 4.071234 34.160735 25.478375
2006-06-08 05:52:32 51°25.318 2°47.093 13.4577 4.071234 34.160046 25.478375
2006-06-08 05:52:38 51°25.337 2°47.082 13.462 4.071234 34.160735 25.444665
2006-06-08 05:52:42 51°25.35 2°47.075 13.454 4.071234 34.160735 25.444665
2006-06-08 05:52:47 51°25.366 2°47.066 13.4502 4.070813 34.158165 25.410956
2006-06-08 05:52:52 51°25.383 2°47.057 13.4552 4.071023 34.16221 25.410956
2006-06-08 05:52:55 51°25.392 2°47.052 13.4529 4.070918 34.165363 25.377247
2006-06-08 05:53:02 51°25.416 2°47.041 13.4445 4.070602 34.164471 25.377247
2006-06-08 05:53:07 51°25.432 2°47.033 13.4465 4.070602 34.16309 25.377247
2006-06-08 05:53:12 51°25.448 2°47.024 13.4467 4.070602 34.16309 25.377247
2006-06-08 05:53:16 51°25.461 2°47.018 13.4436 4.055952 34.026525 25.343537
2006-06-08 05:53:22 51°25.481 2°47.006 13.4412 4.070813 34.168517 25.309828
2006-06-08 05:53:27 51°25.497 2°46.997 13.4387 4.070813 34.169898 25.276118
2006-06-08 05:53:32 51°25.513 2°46.988 13.4414 4.070602 34.168612 25.276118
2006-06-08 05:53:38 51°25.532 2°46.977 13.4403 4.070813 34.17335 25.242409
2006-06-08 05:53:42 51°25.545 2°46.97 13.4458 4.070813 34.17335 25.242409
2006-06-08 05:53:46 51°25.558 2°46.962 13.4431 4.070602 34.173446 25.242409
2006-06-08 05:53:52 51°25.578 2°46.952 13.4399 4.070813 34.177494 25.2087
2006-06-08 05:53:56 51°25.59 2°46.944 13.437 4.071024 34.180852 25.17499
2006-06-08 05:54:02 51°25.61 2°46.933 13.4332 4.071235 34.18421 25.17499
2006-06-08 05:54:08 51°25.629 2°46.922 13.4305 4.071235 34.185592 25.107571
2006-06-08 05:54:11 51°25.638 2°46.916 13.4274 4.071235 34.185592 25.107571
2006-06-08 05:54:16 51°25.655 2°46.907 13.4243 4.071867 34.19083 25.107571
2006-06-08 05:54:22 51°25.674 2°46.896 13.4319 4.071972 34.19251 25.073862
2006-06-08 05:54:28 51°25.693 2°46.884 13.424 4.072394 34.195772 25.040153
2006-06-08 05:54:32 51°25.706 2°46.877 13.415 4.07271 34.20081 25.040153
2006-06-08 05:54:38 51°25.725 2°46.866 13.4194 4.072816 34.203873 24.972734
2006-06-08 05:54:42 51°25.738 2°46.859 13.4122 4.072816 34.203873 24.972734
2006-06-08 05:54:48 51°25.757 2°46.849 13.4099 4.073237 34.211285 24.972734
2006-06-08 05:54:52 51°25.77 2°46.841 13.4112 4.073659 34.218006 24.972734
2006-06-08 05:54:56 51°25.783 2°46.834 13.4084 4.073975 34.222356 24.905315
2006-06-08 05:55:02 51°25.802 2°46.823 13.4067 4.074186 34.22641 24.905315
2006-06-08 05:55:07 51°25.818 2°46.814 13.4122 4.074608 34.234519 24.905315
2006-06-08 05:55:12 51°25.834 2°46.804 13.4059 4.074608 34.234519 24.905315
2006-06-08 05:55:17 51°25.85 2°46.795 13.4034 4.074608 34.235904 24.837896
2006-06-08 05:55:22 51°25.865 2°46.786 13.4037 4.074713 34.240356 24.837896
2006-06-08 05:55:27 51°25.881 2°46.777 13.4034 4.074818 34.243423 24.804187
2006-06-08 05:55:32 51°25.897 2°46.768 13.4057 4.075135 34.249162 24.804187
2006-06-08 05:55:38 51°25.917 2°46.758 13.404 4.075029 34.248865 24.770477
2006-06-08 05:55:42 51°25.93 2°46.751 13.398 4.075029 34.248865 24.770477
2006-06-08 05:55:47 51°25.946 2°46.741 13.4049 4.075135 34.249854 24.736768
2006-06-08 05:55:52 51°25.962 2°46.733 13.3991 4.075451 34.254208 24.736768
2006-06-08 05:55:58 51°25.981 2°46.722 13.3944 4.075662 34.256187 24.703059
2006-06-08 05:56:02 51°25.994 2°46.715 13.4013 4.075662 34.25688 24.703059
2006-06-08 05:56:08 51°26.014 2°46.703 13.3927 4.075873 34.259552 24.669349
2006-06-08 05:56:12 51°26.026 2°46.696 13.3946 4.075873 34.259552 24.669349
2006-06-08 05:56:17 51°26.042 2°46.686 13.3915 4.075662 34.25896 24.63564
2006-06-08 05:56:21 51°26.055 2°46.679 13.3913 4.075873 34.260938 24.60193
2006-06-08 05:56:27 51°26.074 2°46.667 13.3922 4.075767 34.262722 24.568221
2006-06-08 05:56:32 51°26.09 2°46.657 13.3842 4.075873 34.265792 24.60193
2006-06-08 05:56:36 51°26.103 2°46.649 13.3895 4.075767 34.26619 24.534512
2006-06-08 05:56:42 51°26.123 2°46.638 13.3812 4.075767 34.26619 24.534512
2006-06-08 05:56:47 51°26.139 2°46.63 13.3859 4.075873 34.26926 24.534512
2006-06-08 05:56:52 51°26.155 2°46.621 13.3874 4.076084 34.272627 24.534512
2006-06-08 05:56:57 51°26.172 2°46.612 13.3893 4.075873 34.272729 24.500802
2006-06-08 05:57:02 51°26.188 2°46.604 13.3815 4.075873 34.273422 24.500802
2006-06-08 05:57:07 51°26.204 2°46.594 13.3792 4.076084 34.27679 24.500802
2006-06-08 05:57:12 51°26.22 2°46.585 13.3783 4.076084 34.27679 24.500802
2006-06-08 05:57:17 51°26.236 2°46.576 13.3833 4.076189 34.278474 24.467093
2006-06-08 05:57:22 51°26.252 2°46.566 13.3836 4.076084 34.278872 24.500802
2006-06-08 05:57:27 51°26.268 2°46.556 13.3778 4.076084 34.279566 24.399674
2006-06-08 05:57:31 51°26.281 2°46.548 13.3846 4.075978 34.277882 24.399674
2006-06-08 05:57:37 51°26.301 2°46.536 13.3839 4.075873 34.278974 24.433383
2006-06-08 05:57:41 51°26.313 2°46.528 13.3831 4.075873 34.278974 24.433383
2006-06-08 05:57:47 51°26.333 2°46.517 13.3817 4.075978 34.281352 24.399674
2006-06-08 05:57:52 51°26.349 2°46.508 13.3892 4.075873 34.281057 24.399674
2006-06-08 05:57:56 51°26.362 2°46.5 13.383 4.075873 34.282445 24.365965
2006-06-08 05:58:02 51°26.381 2°46.49 13.3847 4.075767 34.280761 24.365965
2006-06-08 05:58:07 51°26.398 2°46.48 13.3911 4.075662 34.279077 24.365965
2006-06-08 05:58:11 51°26.411 2°46.473 13.3851 4.075662 34.279077 24.365965
2006-06-08 05:58:17 51°26.43 2°46.462 13.3886 4.075662 34.277688 24.298546
2006-06-08 05:58:22 51°26.446 2°46.453 13.3962 4.075557 34.276698 24.298546
2006-06-08 05:58:27 51°26.462 2°46.444 13.3996 4.075662 34.2763 24.365965
2006-06-08 05:58:32 51°26.479 2°46.434 13.405 4.075451 34.275015 24.264836
2006-06-08 05:58:36 51°26.492 2°46.427 13.4007 4.075451 34.275015 24.264836
2006-06-08 05:58:42 51°26.511 2°46.416 13.4055 4.075451 34.275015 24.264836
2006-06-08 05:58:47 51°26.527 2°46.407 13.4054 4.075557 34.273923 24.264836
2006-06-08 05:58:52 51°26.544 2°46.397 13.4121 4.075451 34.272239 24.264836
2006-06-08 05:58:57 51°26.56 2°46.388 13.4049 4.075451 34.269464 24.231127
2006-06-08 05:59:02 51°26.576 2°46.378 13.4093 4.075767 34.26827 24.231127
2006-06-08 05:59:07 51°26.592 2°46.368 13.4038 4.075029 34.259263 24.231127
2006-06-08 05:59:12 51°26.609 2°46.358 13.4068 4.075029 34.259263 24.231127
2006-06-08 05:59:16 51°26.622 2°46.35 13.4057 4.075029 34.257876 24.231127
2006-06-08 05:59:22 51°26.641 2°46.338 13.4078 4.074924 34.254807 24.197418
2006-06-08 05:59:27 51°26.658 2°46.329 13.3991 4.074924 34.252727 24.197418
2006-06-08 05:59:32 51°26.674 2°46.319 13.3986 4.074713 34.249362 24.163708
2006-06-08 05:59:35 51°26.684 2°46.313 13.3901 4.074819 34.250352 24.129999
2006-06-08 05:59:42 51°26.707 2°46.3 13.3939 4.074819 34.250352 24.129999
2006-06-08 05:59:47 51°26.723 2°46.291 13.3846 4.074924 34.252727 24.129999
2006-06-08 05:59:52 51°26.739 2°46.281 13.3855 4.074608 34.250452 24.163708
2006-06-08 05:59:56 51°26.752 2°46.274 13.3786 4.074713 34.251442 24.129999
2006-06-08 06:00:02 51°26.772 2°46.262 13.3701 4.074608 34.253918 24.129999
2006-06-08 06:00:07 51°26.788 2°46.253 13.3664 4.073975 34.249368 24.129999
2006-06-08 06:00:12 51°26.805 2°46.243 13.3593 4.073975 34.249368 24.129999
2006-06-08 06:00:17 51°26.821 2°46.233 13.3596 4.073976 34.252141 24.129999
2006-06-08 06:00:22 51°26.837 2°46.223 13.3529 4.074186 34.2562 24.096289
2006-06-08 06:00:27 51°26.854 2°46.213 13.3517 4.07387 34.257392 24.06258
2006-06-08 06:00:32 51°26.87 2°46.203 13.3475 4.073765 34.259871 24.06258
2006-06-08 06:00:36 51°26.883 2°46.196 13.3507 4.07366 34.265819 24.06258
2006-06-08 06:00:42 51°26.903 2°46.184 13.3468 4.07366 34.265819 24.06258
2006-06-08 06:00:47 51°26.919 2°46.175 13.3502 4.073449 34.270086 24.096289
2006-06-08 06:00:52 51°26.935 2°46.164 13.3566 4.073238 34.271577 24.028871
2006-06-08 06:00:56 51°26.949 2°46.157 13.3524 4.073133 34.273364 24.06258
2006-06-08 06:01:03 51°26.972 2°46.144 13.3554 4.073027 34.27654 24.028871
2006-06-08 06:01:08 51°26.988 2°46.134 13.3534 4.073133 34.281699 23.995161
2006-06-08 06:01:11 51°26.998 2°46.128 13.3589 4.073133 34.281699 23.995161
2006-06-08 06:01:17 51°27.018 2°46.117 13.3643 4.073449 34.287451 23.995161
2006-06-08 06:01:22 51°27.035 2°46.107 13.3674 4.073765 34.290423 23.995161
2006-06-08 06:01:27 51°27.051 2°46.097 13.3694 4.074081 34.292005 23.961452
2006-06-08 06:01:32 51°27.068 2°46.087 13.3726 4.074503 34.295968 23.961452
2006-06-08 06:01:36 51°27.081 2°46.079 13.3716 4.074292 34.293291 23.961452
2006-06-08 06:01:41 51°27.097 2°46.069 13.3708 4.074292 34.293291 23.961452
2006-06-08 06:01:47 51°27.117 2°46.056 13.3756 4.074292 34.291206 23.927742
2006-06-08 06:01:52 51°27.133 2°46.046 13.3764 4.074503 34.290408 23.927742
2006-06-08 06:01:56 51°27.146 2°46.037 13.3773 4.074819 34.2906 23.927742
2006-06-08 06:02:02 51°27.166 2°46.025 13.384 4.074925 34.288117 23.894033
2006-06-08 06:02:07 51°27.183 2°46.015 13.3878 4.074819 34.285042 23.894033
2006-06-08 06:02:12 51°27.2 2°46.006 13.3809 4.074819 34.285042 23.894033
2006-06-08 06:02:17 51°27.216 2°45.996 13.3817 4.074819 34.282959 23.894033
2006-06-08 06:02:22 51°27.233 2°45.987 13.3789 4.074819 34.28157 23.860324
2006-06-08 06:02:27 51°27.249 2°45.978 13.3812 4.075241 34.284142 23.860324
2006-06-08 06:02:31 51°27.263 2°45.97 13.3843 4.075241 34.282059 23.860324
2006-06-08 06:02:36 51°27.279 2°45.96 13.381 4.075451 34.279873 23.860324
2006-06-08 06:02:42 51°27.299 2°45.949 13.382 4.075451 34.279873 23.860324
2006-06-08 06:02:47 51°27.316 2°45.94 13.3811 4.075767 34.281455 23.826614
2006-06-08 06:02:52 51°27.332 2°45.93 13.3835 4.075978 34.282741 23.792905
2006-06-08 06:02:57 51°27.349 2°45.92 13.3856 4.075978 34.284129 23.826614
2006-06-08 06:03:02 51°27.366 2°45.911 13.3771 4.075873 34.282445 23.792905
2006-06-08 06:03:07 51°27.382 2°45.901 13.3787 4.075978 34.283435 23.792905
2006-06-08 06:03:12 51°27.399 2°45.892 13.3773 4.075978 34.283435 23.792905
2006-06-08 06:03:17 51°27.415 2°45.882 13.3742 4.076189 34.285415 23.792905
2006-06-08 06:03:22 51°27.432 2°45.873 13.3629 4.076189 34.286109 23.725486
2006-06-08 06:03:27 51°27.449 2°45.863 13.3527 4.0764 34.287395 23.759195
2006-06-08 06:03:32 51°27.465 2°45.853 13.3326 4.076716 34.288976 23.759195
2006-06-08 06:03:36 51°27.478 2°45.845 13.3255 4.076821 34.29205 23.725486
2006-06-08 06:03:42 51°27.497 2°45.833 13.3001 4.076821 34.29205 23.725486
2006-06-08 06:03:47 51°27.514 2°45.823 13.2712 4.076611 34.291458 23.725486
2006-06-08 06:03:52 51°27.53 2°45.814 13.2659 4.076716 34.294532 23.725486
2006-06-08 06:03:57 51°27.546 2°45.804 13.2442 4.076716 34.30009 23.691777
2006-06-08 06:04:02 51°27.563 2°45.794 13.2377 4.076716 34.306344 23.691777
2006-06-08 06:04:07 51°27.579 2°45.785 13.2256 4.076611 34.318566 23.691777
2006-06-08 06:04:11 51°27.592 2°45.778 13.2248 4.076611 34.318566 23.691777
2006-06-08 06:04:17 51°27.612 2°45.766 13.2108 4.077138 34.34162 23.624358
2006-06-08 06:04:22 51°27.629 2°45.757 13.2057 4.076928 34.355665 23.590648
2006-06-08 06:04:27 51°27.645 2°45.747 13.1908 4.076612 34.372919 23.556939
2006-06-08 06:04:32 51°27.661 2°45.737 13.1898 4.076507 34.388688 23.590648
2006-06-08 06:04:37 51°27.678 2°45.727 13.1841 4.07598 34.395605 23.556939